<?xml version="1.0" encoding="UTF-8" standalone="no" ?>
<gpx xmlns="http://www.topografix.com/GPX/1/1" xmlns:xsi="http://www.w3.org/2001/XMLSchema-instance" xsi:schemaLocation="http://www.topografix.com/GPX/1/1 http://www.topografix.com/GPX/1/1/gpx.xsd" version="1.1" creator="VisuGPX - https://www.visugpx.com">
  <metadata>
    <name>Marcols les Eaux - Mézilhac (15km)</name>
  </metadata>
  <trk>
    <name><![CDATA[Marcols les Eaux - Mézilhac]]></name>
    <extensions>
      <line xmlns="http://www.topografix.com/GPX/gpx_style/0/2">
        <color>0000FF</color>
        <width>4</width>
      </line>
    </extensions>
    <trkseg>
      <trkpt lat="44.81491" lon="4.40112">
        <ele>720</ele>
        <time>2018-08-04T14:59:00Z</time>
      </trkpt>
      <trkpt lat="44.81486" lon="4.40098">
        <ele>721.1</ele>
        <time>2018-08-04T14:58:36Z</time>
      </trkpt>
      <trkpt lat="44.81482" lon="4.40088">
        <ele>721.1</ele>
        <time>2018-08-04T14:58:20Z</time>
      </trkpt>
      <trkpt lat="44.8148" lon="4.40081">
        <ele>721.3</ele>
      </trkpt>
      <trkpt lat="44.81486" lon="4.40073">
        <ele>722.6</ele>
        <time>2018-08-04T14:58:04Z</time>
      </trkpt>
      <trkpt lat="44.81483" lon="4.4006">
        <ele>721</ele>
        <time>2018-08-04T14:58:04Z</time>
      </trkpt>
      <trkpt lat="44.81474" lon="4.40046">
        <ele>721</ele>
        <time>2018-08-04T14:57:48Z</time>
      </trkpt>
      <trkpt lat="44.81467" lon="4.40041">
        <ele>724</ele>
        <time>2018-08-04T14:57:32Z</time>
      </trkpt>
      <trkpt lat="44.81464" lon="4.40032">
        <ele>724</ele>
        <time>2018-08-04T14:57:32Z</time>
      </trkpt>
      <trkpt lat="44.81451" lon="4.40023">
        <ele>722</ele>
        <time>2018-08-04T14:57:03Z</time>
      </trkpt>
      <trkpt lat="44.81443" lon="4.40026">
        <ele>722</ele>
        <time>2018-08-04T14:56:32Z</time>
      </trkpt>
      <trkpt lat="44.81452" lon="4.3999">
        <ele>724</ele>
        <time>2018-08-04T14:54:31Z</time>
      </trkpt>
      <trkpt lat="44.81457" lon="4.39977">
        <ele>726</ele>
        <time>2018-08-04T14:54:04Z</time>
      </trkpt>
      <trkpt lat="44.81459" lon="4.39971">
        <ele>729.8</ele>
      </trkpt>
      <trkpt lat="44.81453" lon="4.39961">
        <ele>726</ele>
        <time>2018-08-04T14:53:51Z</time>
      </trkpt>
      <trkpt lat="44.81449" lon="4.39942">
        <ele>728</ele>
        <time>2018-08-04T14:53:47Z</time>
      </trkpt>
      <trkpt lat="44.81445" lon="4.39935">
        <ele>728</ele>
        <time>2018-08-04T14:53:20Z</time>
      </trkpt>
      <trkpt lat="44.81431" lon="4.39922">
        <ele>733</ele>
        <time>2018-08-04T14:53:05Z</time>
      </trkpt>
      <trkpt lat="44.8142" lon="4.3991">
        <ele>731</ele>
        <time>2018-08-04T14:53:04Z</time>
      </trkpt>
      <trkpt lat="44.81398" lon="4.39902">
        <ele>736</ele>
        <time>2018-08-04T14:52:50Z</time>
      </trkpt>
      <trkpt lat="44.81388" lon="4.39904">
        <ele>731</ele>
        <time>2018-08-04T14:52:30Z</time>
      </trkpt>
      <trkpt lat="44.81377" lon="4.399">
        <ele>736</ele>
        <time>2018-08-04T14:52:10Z</time>
      </trkpt>
      <trkpt lat="44.81374" lon="4.39871">
        <ele>738</ele>
        <time>2018-08-04T14:52:07Z</time>
      </trkpt>
      <trkpt lat="44.81385" lon="4.39844">
        <ele>743</ele>
        <time>2018-08-04T14:51:40Z</time>
      </trkpt>
      <trkpt lat="44.81377" lon="4.39837">
        <ele>743</ele>
        <time>2018-08-04T14:51:18Z</time>
      </trkpt>
      <trkpt lat="44.81354" lon="4.39844">
        <ele>741</ele>
        <time>2018-08-04T14:51:18Z</time>
      </trkpt>
      <trkpt lat="44.8133" lon="4.39846">
        <ele>736</ele>
        <time>2018-08-04T14:50:55Z</time>
      </trkpt>
      <trkpt lat="44.81314" lon="4.39843">
        <ele>735</ele>
        <time>2018-08-04T14:50:20Z</time>
      </trkpt>
      <trkpt lat="44.81319" lon="4.39817">
        <ele>738.7</ele>
      </trkpt>
      <trkpt lat="44.81325" lon="4.39807">
        <ele>742</ele>
        <time>2018-08-04T14:50:00Z</time>
      </trkpt>
      <trkpt lat="44.81337" lon="4.39782">
        <ele>747</ele>
        <time>2018-08-04T14:49:58Z</time>
      </trkpt>
      <trkpt lat="44.8134" lon="4.39759">
        <ele>751</ele>
        <time>2018-08-04T14:49:38Z</time>
      </trkpt>
      <trkpt lat="44.81335" lon="4.39747">
        <ele>751</ele>
        <time>2018-08-04T14:49:16Z</time>
      </trkpt>
      <trkpt lat="44.81327" lon="4.39733">
        <ele>756</ele>
        <time>2018-08-04T14:49:00Z</time>
      </trkpt>
      <trkpt lat="44.81319" lon="4.39712">
        <ele>751</ele>
        <time>2018-08-04T14:49:00Z</time>
      </trkpt>
      <trkpt lat="44.81315" lon="4.39672">
        <ele>752</ele>
        <time>2018-08-04T14:48:42Z</time>
      </trkpt>
      <trkpt lat="44.81317" lon="4.39647">
        <ele>752</ele>
        <time>2018-08-04T14:48:02Z</time>
      </trkpt>
      <trkpt lat="44.81316" lon="4.39634">
        <ele>752</ele>
        <time>2018-08-04T14:48:02Z</time>
      </trkpt>
      <trkpt lat="44.8132" lon="4.39619">
        <ele>766</ele>
        <time>2018-08-04T14:47:07Z</time>
      </trkpt>
      <trkpt lat="44.81328" lon="4.3962">
        <ele>766</ele>
        <time>2018-08-04T14:46:42Z</time>
      </trkpt>
      <trkpt lat="44.8133" lon="4.39585">
        <ele>768</ele>
        <time>2018-08-04T14:46:12Z</time>
      </trkpt>
      <trkpt lat="44.81329" lon="4.39547">
        <ele>769</ele>
        <time>2018-08-04T14:46:10Z</time>
      </trkpt>
      <trkpt lat="44.81326" lon="4.39523">
        <ele>769</ele>
        <time>2018-08-04T14:45:40Z</time>
      </trkpt>
      <trkpt lat="44.8132" lon="4.39504">
        <ele>772</ele>
        <time>2018-08-04T14:45:24Z</time>
      </trkpt>
      <trkpt lat="44.81312" lon="4.39482">
        <ele>760</ele>
        <time>2018-08-04T14:45:08Z</time>
      </trkpt>
      <trkpt lat="44.81306" lon="4.39466">
        <ele>760</ele>
        <time>2018-08-04T14:45:08Z</time>
      </trkpt>
      <trkpt lat="44.81299" lon="4.39444">
        <ele>763</ele>
        <time>2018-08-04T14:44:52Z</time>
      </trkpt>
      <trkpt lat="44.81291" lon="4.39423">
        <ele>760</ele>
        <time>2018-08-04T14:44:36Z</time>
      </trkpt>
      <trkpt lat="44.81273" lon="4.39395">
        <ele>763</ele>
        <time>2018-08-04T14:44:08Z</time>
      </trkpt>
      <trkpt lat="44.81263" lon="4.39364">
        <ele>750</ele>
        <time>2018-08-04T14:44:08Z</time>
      </trkpt>
      <trkpt lat="44.81261" lon="4.39317">
        <ele>749</ele>
        <time>2018-08-04T14:43:47Z</time>
      </trkpt>
      <trkpt lat="44.81266" lon="4.39293">
        <ele>761</ele>
        <time>2018-08-04T14:43:18Z</time>
      </trkpt>
      <trkpt lat="44.81271" lon="4.39257">
        <ele>766</ele>
        <time>2018-08-04T14:42:44Z</time>
      </trkpt>
      <trkpt lat="44.81275" lon="4.39238">
        <ele>766</ele>
        <time>2018-08-04T14:42:44Z</time>
      </trkpt>
      <trkpt lat="44.81275" lon="4.3922">
        <ele>763</ele>
        <time>2018-08-04T14:42:29Z</time>
      </trkpt>
      <trkpt lat="44.81235" lon="4.3922">
        <ele>764</ele>
        <time>2018-08-04T14:42:00Z</time>
      </trkpt>
      <trkpt lat="44.81223" lon="4.39242">
        <ele>760</ele>
        <time>2018-08-04T14:41:39Z</time>
      </trkpt>
      <trkpt lat="44.81202" lon="4.39293">
        <ele>755</ele>
        <time>2018-08-04T14:41:37Z</time>
      </trkpt>
      <trkpt lat="44.8118" lon="4.39321">
        <ele>754</ele>
        <time>2018-08-04T14:41:02Z</time>
      </trkpt>
      <trkpt lat="44.81159" lon="4.39332">
        <ele>754</ele>
        <time>2018-08-04T14:40:29Z</time>
      </trkpt>
      <trkpt lat="44.81125" lon="4.39329">
        <ele>758</ele>
        <time>2018-08-04T14:40:00Z</time>
      </trkpt>
      <trkpt lat="44.81097" lon="4.39323">
        <ele>760</ele>
        <time>2018-08-04T14:40:00Z</time>
      </trkpt>
      <trkpt lat="44.81077" lon="4.39321">
        <ele>760</ele>
        <time>2018-08-04T14:39:32Z</time>
      </trkpt>
      <trkpt lat="44.81065" lon="4.39313">
        <ele>772</ele>
        <time>2018-08-04T14:39:16Z</time>
      </trkpt>
      <trkpt lat="44.81051" lon="4.39304">
        <ele>772</ele>
        <time>2018-08-04T14:39:00Z</time>
      </trkpt>
      <trkpt lat="44.81037" lon="4.39294">
        <ele>771</ele>
        <time>2018-08-04T14:39:00Z</time>
      </trkpt>
      <trkpt lat="44.81022" lon="4.39287">
        <ele>778</ele>
        <time>2018-08-04T14:38:44Z</time>
      </trkpt>
      <trkpt lat="44.81012" lon="4.39281">
        <ele>768</ele>
        <time>2018-08-04T14:38:28Z</time>
      </trkpt>
      <trkpt lat="44.81001" lon="4.39264">
        <ele>768</ele>
        <time>2018-08-04T14:38:12Z</time>
      </trkpt>
      <trkpt lat="44.80997" lon="4.39246">
        <ele>776</ele>
        <time>2018-08-04T14:38:12Z</time>
      </trkpt>
      <trkpt lat="44.80988" lon="4.39226">
        <ele>783</ele>
        <time>2018-08-04T14:37:56Z</time>
      </trkpt>
      <trkpt lat="44.80977" lon="4.39209">
        <ele>772</ele>
        <time>2018-08-04T14:37:40Z</time>
      </trkpt>
      <trkpt lat="44.80974" lon="4.39195">
        <ele>775</ele>
        <time>2018-08-04T14:37:26Z</time>
      </trkpt>
      <trkpt lat="44.80969" lon="4.39146">
        <ele>781</ele>
        <time>2018-08-04T14:37:26Z</time>
      </trkpt>
      <trkpt lat="44.80972" lon="4.39113">
        <ele>785</ele>
        <time>2018-08-04T14:37:00Z</time>
      </trkpt>
      <trkpt lat="44.80967" lon="4.39079">
        <ele>788</ele>
        <time>2018-08-04T14:36:33Z</time>
      </trkpt>
      <trkpt lat="44.8098" lon="4.39023">
        <ele>788</ele>
        <time>2018-08-04T14:35:52Z</time>
      </trkpt>
      <trkpt lat="44.80987" lon="4.39006">
        <ele>797</ele>
        <time>2018-08-04T14:35:52Z</time>
      </trkpt>
      <trkpt lat="44.80996" lon="4.38977">
        <ele>796</ele>
        <time>2018-08-04T14:35:30Z</time>
      </trkpt>
      <trkpt lat="44.80991" lon="4.38957">
        <ele>796</ele>
        <time>2018-08-04T14:35:04Z</time>
      </trkpt>
      <trkpt lat="44.80989" lon="4.3894">
        <ele>796</ele>
        <time>2018-08-04T14:35:04Z</time>
      </trkpt>
      <trkpt lat="44.80982" lon="4.38911">
        <ele>790</ele>
        <time>2018-08-04T14:34:48Z</time>
      </trkpt>
      <trkpt lat="44.80971" lon="4.38876">
        <ele>793</ele>
        <time>2018-08-04T14:34:16Z</time>
      </trkpt>
      <trkpt lat="44.80969" lon="4.38867">
        <ele>797</ele>
        <time>2018-08-04T14:34:16Z</time>
      </trkpt>
      <trkpt lat="44.80968" lon="4.38832">
        <ele>801</ele>
        <time>2018-08-04T14:33:38Z</time>
      </trkpt>
      <trkpt lat="44.80971" lon="4.38814">
        <ele>802</ele>
        <time>2018-08-04T14:33:13Z</time>
      </trkpt>
      <trkpt lat="44.80977" lon="4.38806">
        <ele>802</ele>
        <time>2018-08-04T14:33:11Z</time>
      </trkpt>
      <trkpt lat="44.80983" lon="4.38804">
        <ele>802</ele>
        <time>2018-08-04T14:32:37Z</time>
      </trkpt>
      <trkpt lat="44.80992" lon="4.38797">
        <ele>815</ele>
        <time>2018-08-04T14:32:20Z</time>
      </trkpt>
      <trkpt lat="44.80995" lon="4.38788">
        <ele>816</ele>
        <time>2018-08-04T14:32:20Z</time>
      </trkpt>
      <trkpt lat="44.81" lon="4.38776">
        <ele>816</ele>
        <time>2018-08-04T14:32:00Z</time>
      </trkpt>
      <trkpt lat="44.81002" lon="4.38762">
        <ele>813</ele>
        <time>2018-08-04T14:31:44Z</time>
      </trkpt>
      <trkpt lat="44.81009" lon="4.38753">
        <ele>813</ele>
        <time>2018-08-04T14:31:28Z</time>
      </trkpt>
      <trkpt lat="44.8101" lon="4.38743">
        <ele>813</ele>
        <time>2018-08-04T14:31:28Z</time>
      </trkpt>
      <trkpt lat="44.81013" lon="4.38733">
        <ele>810</ele>
        <time>2018-08-04T14:31:08Z</time>
      </trkpt>
      <trkpt lat="44.81028" lon="4.38698">
        <ele>822</ele>
        <time>2018-08-04T14:30:44Z</time>
      </trkpt>
      <trkpt lat="44.81036" lon="4.38681">
        <ele>822</ele>
        <time>2018-08-04T14:30:41Z</time>
      </trkpt>
      <trkpt lat="44.81044" lon="4.38669">
        <ele>842</ele>
        <time>2018-08-04T14:30:20Z</time>
      </trkpt>
      <trkpt lat="44.81046" lon="4.38658">
        <ele>842</ele>
        <time>2018-08-04T14:29:58Z</time>
      </trkpt>
      <trkpt lat="44.81069" lon="4.38626">
        <ele>840</ele>
        <time>2018-08-04T14:29:25Z</time>
      </trkpt>
      <trkpt lat="44.8107" lon="4.386">
        <ele>852</ele>
        <time>2018-08-04T14:29:25Z</time>
      </trkpt>
      <trkpt lat="44.81063" lon="4.38543">
        <ele>844</ele>
        <time>2018-08-04T14:28:52Z</time>
      </trkpt>
      <trkpt lat="44.81065" lon="4.38501">
        <ele>845</ele>
        <time>2018-08-04T14:28:30Z</time>
      </trkpt>
      <trkpt lat="44.8107" lon="4.38475">
        <ele>859</ele>
        <time>2018-08-04T14:27:52Z</time>
      </trkpt>
      <trkpt lat="44.81073" lon="4.38457">
        <ele>861</ele>
        <time>2018-08-04T14:27:52Z</time>
      </trkpt>
      <trkpt lat="44.81075" lon="4.3843">
        <ele>864</ele>
        <time>2018-08-04T14:27:34Z</time>
      </trkpt>
      <trkpt lat="44.81073" lon="4.38411">
        <ele>864</ele>
        <time>2018-08-04T14:27:23Z</time>
      </trkpt>
      <trkpt lat="44.81071" lon="4.38367">
        <ele>871</ele>
        <time>2018-08-04T14:27:22Z</time>
      </trkpt>
      <trkpt lat="44.81045" lon="4.38331">
        <ele>868</ele>
        <time>2018-08-04T14:26:14Z</time>
      </trkpt>
      <trkpt lat="44.8102" lon="4.38313">
        <ele>867</ele>
        <time>2018-08-04T14:25:43Z</time>
      </trkpt>
      <trkpt lat="44.81015" lon="4.38307">
        <ele>867</ele>
        <time>2018-08-04T14:25:24Z</time>
      </trkpt>
      <trkpt lat="44.80999" lon="4.38287">
        <ele>864</ele>
        <time>2018-08-04T14:25:24Z</time>
      </trkpt>
      <trkpt lat="44.80993" lon="4.38265">
        <ele>864</ele>
        <time>2018-08-04T14:25:04Z</time>
      </trkpt>
      <trkpt lat="44.80987" lon="4.38222">
        <ele>872</ele>
        <time>2018-08-04T14:24:47Z</time>
      </trkpt>
      <trkpt lat="44.80999" lon="4.38171">
        <ele>870</ele>
        <time>2018-08-04T14:23:56Z</time>
      </trkpt>
      <trkpt lat="44.81006" lon="4.38151">
        <ele>865</ele>
        <time>2018-08-04T14:23:56Z</time>
      </trkpt>
      <trkpt lat="44.81015" lon="4.38121">
        <ele>880</ele>
        <time>2018-08-04T14:23:40Z</time>
      </trkpt>
      <trkpt lat="44.81031" lon="4.38079">
        <ele>876</ele>
        <time>2018-08-04T14:23:07Z</time>
      </trkpt>
      <trkpt lat="44.81038" lon="4.38062">
        <ele>869</ele>
        <time>2018-08-04T14:22:44Z</time>
      </trkpt>
      <trkpt lat="44.81044" lon="4.38043">
        <ele>882</ele>
        <time>2018-08-04T14:22:44Z</time>
      </trkpt>
      <trkpt lat="44.81049" lon="4.38021">
        <ele>878</ele>
        <time>2018-08-04T14:22:32Z</time>
      </trkpt>
      <trkpt lat="44.81053" lon="4.38">
        <ele>872</ele>
        <time>2018-08-04T14:22:14Z</time>
      </trkpt>
      <trkpt lat="44.81058" lon="4.37987">
        <ele>872</ele>
        <time>2018-08-04T14:21:58Z</time>
      </trkpt>
      <trkpt lat="44.81062" lon="4.37974">
        <ele>871</ele>
        <time>2018-08-04T14:21:57Z</time>
      </trkpt>
      <trkpt lat="44.81071" lon="4.37952">
        <ele>875</ele>
        <time>2018-08-04T14:21:44Z</time>
      </trkpt>
      <trkpt lat="44.81081" lon="4.3794">
        <ele>875</ele>
        <time>2018-08-04T14:21:21Z</time>
      </trkpt>
      <trkpt lat="44.81081" lon="4.37928">
        <ele>876</ele>
        <time>2018-08-04T14:21:21Z</time>
      </trkpt>
      <trkpt lat="44.81068" lon="4.37913">
        <ele>869</ele>
        <time>2018-08-04T14:21:00Z</time>
      </trkpt>
      <trkpt lat="44.81064" lon="4.37907">
        <ele>869</ele>
        <time>2018-08-04T14:20:44Z</time>
      </trkpt>
      <trkpt lat="44.8106" lon="4.37903">
        <ele>869</ele>
        <time>2018-08-04T14:20:44Z</time>
      </trkpt>
      <trkpt lat="44.8105" lon="4.37897">
        <ele>869</ele>
        <time>2018-08-04T14:20:08Z</time>
      </trkpt>
      <trkpt lat="44.8105" lon="4.3787">
        <ele>870</ele>
        <time>2018-08-04T14:19:44Z</time>
      </trkpt>
      <trkpt lat="44.81054" lon="4.3783">
        <ele>870</ele>
        <time>2018-08-04T14:19:44Z</time>
      </trkpt>
      <trkpt lat="44.81058" lon="4.37813">
        <ele>869</ele>
        <time>2018-08-04T14:19:21Z</time>
      </trkpt>
      <trkpt lat="44.81049" lon="4.37769">
        <ele>868</ele>
        <time>2018-08-04T14:18:52Z</time>
      </trkpt>
      <trkpt lat="44.81037" lon="4.37738">
        <ele>862</ele>
        <time>2018-08-04T14:18:13Z</time>
      </trkpt>
      <trkpt lat="44.81033" lon="4.37724">
        <ele>866</ele>
        <time>2018-08-04T14:18:13Z</time>
      </trkpt>
      <trkpt lat="44.81018" lon="4.37689">
        <ele>870</ele>
        <time>2018-08-04T14:17:52Z</time>
      </trkpt>
      <trkpt lat="44.81013" lon="4.37654">
        <ele>863</ele>
        <time>2018-08-04T14:17:33Z</time>
      </trkpt>
      <trkpt lat="44.81" lon="4.37634">
        <ele>864</ele>
        <time>2018-08-04T14:17:08Z</time>
      </trkpt>
      <trkpt lat="44.8099" lon="4.37612">
        <ele>867</ele>
        <time>2018-08-04T14:17:06Z</time>
      </trkpt>
      <trkpt lat="44.8099" lon="4.37607">
        <ele>867</ele>
        <time>2018-08-04T14:16:41Z</time>
      </trkpt>
      <trkpt lat="44.8099" lon="4.37597">
        <ele>867</ele>
        <time>2018-08-04T14:16:38Z</time>
      </trkpt>
      <trkpt lat="44.80978" lon="4.37569">
        <ele>874</ele>
        <time>2018-08-04T14:16:15Z</time>
      </trkpt>
      <trkpt lat="44.80983" lon="4.37547">
        <ele>874</ele>
        <time>2018-08-04T14:15:51Z</time>
      </trkpt>
      <trkpt lat="44.80995" lon="4.37522">
        <ele>874</ele>
        <time>2018-08-04T14:15:24Z</time>
      </trkpt>
      <trkpt lat="44.80999" lon="4.37498">
        <ele>876</ele>
        <time>2018-08-04T14:15:24Z</time>
      </trkpt>
      <trkpt lat="44.81006" lon="4.3748">
        <ele>877</ele>
        <time>2018-08-04T14:15:08Z</time>
      </trkpt>
      <trkpt lat="44.81012" lon="4.37464">
        <ele>877</ele>
        <time>2018-08-04T14:14:44Z</time>
      </trkpt>
      <trkpt lat="44.81011" lon="4.37451">
        <ele>878</ele>
        <time>2018-08-04T14:14:34Z</time>
      </trkpt>
      <trkpt lat="44.8101" lon="4.37426">
        <ele>877</ele>
        <time>2018-08-04T14:14:32Z</time>
      </trkpt>
      <trkpt lat="44.81007" lon="4.37408">
        <ele>877</ele>
        <time>2018-08-04T14:14:08Z</time>
      </trkpt>
      <trkpt lat="44.81008" lon="4.37387">
        <ele>879</ele>
        <time>2018-08-04T14:13:52Z</time>
      </trkpt>
      <trkpt lat="44.81015" lon="4.37372">
        <ele>882</ele>
        <time>2018-08-04T14:13:36Z</time>
      </trkpt>
      <trkpt lat="44.81018" lon="4.37354">
        <ele>882</ele>
        <time>2018-08-04T14:13:36Z</time>
      </trkpt>
      <trkpt lat="44.81018" lon="4.37337">
        <ele>884</ele>
        <time>2018-08-04T14:13:20Z</time>
      </trkpt>
      <trkpt lat="44.8102" lon="4.37318">
        <ele>888</ele>
        <time>2018-08-04T14:13:04Z</time>
      </trkpt>
      <trkpt lat="44.81005" lon="4.37309">
        <ele>891</ele>
        <time>2018-08-04T14:12:48Z</time>
      </trkpt>
      <trkpt lat="44.80988" lon="4.37308">
        <ele>891</ele>
        <time>2018-08-04T14:12:48Z</time>
      </trkpt>
      <trkpt lat="44.80975" lon="4.37298">
        <ele>896</ele>
        <time>2018-08-04T14:12:32Z</time>
      </trkpt>
      <trkpt lat="44.80964" lon="4.37294">
        <ele>896</ele>
        <time>2018-08-04T14:12:16Z</time>
      </trkpt>
      <trkpt lat="44.80959" lon="4.37295">
        <ele>896</ele>
        <time>2018-08-04T14:12:16Z</time>
      </trkpt>
      <trkpt lat="44.80933" lon="4.37283">
        <ele>902</ele>
        <time>2018-08-04T14:11:34Z</time>
      </trkpt>
      <trkpt lat="44.80923" lon="4.37281">
        <ele>908</ele>
        <time>2018-08-04T14:11:09Z</time>
      </trkpt>
      <trkpt lat="44.80895" lon="4.37268">
        <ele>915</ele>
        <time>2018-08-04T14:11:08Z</time>
      </trkpt>
      <trkpt lat="44.80854" lon="4.37243">
        <ele>922</ele>
        <time>2018-08-04T14:10:05Z</time>
      </trkpt>
      <trkpt lat="44.80841" lon="4.37236">
        <ele>923</ele>
        <time>2018-08-04T14:09:48Z</time>
      </trkpt>
      <trkpt lat="44.80806" lon="4.37227">
        <ele>927</ele>
        <time>2018-08-04T14:09:48Z</time>
      </trkpt>
      <trkpt lat="44.80781" lon="4.37219">
        <ele>933</ele>
        <time>2018-08-04T14:09:04Z</time>
      </trkpt>
      <trkpt lat="44.80769" lon="4.37213">
        <ele>933</ele>
        <time>2018-08-04T14:08:48Z</time>
      </trkpt>
      <trkpt lat="44.80742" lon="4.37207">
        <ele>940</ele>
        <time>2018-08-04T14:08:28Z</time>
      </trkpt>
      <trkpt lat="44.80724" lon="4.37209">
        <ele>953</ele>
        <time>2018-08-04T14:08:28Z</time>
      </trkpt>
      <trkpt lat="44.80739" lon="4.37213">
        <ele>942</ele>
        <time>2018-08-04T14:08:04Z</time>
      </trkpt>
      <trkpt lat="44.80763" lon="4.37228">
        <ele>942</ele>
        <time>2018-08-04T14:07:46Z</time>
      </trkpt>
      <trkpt lat="44.80779" lon="4.37239">
        <ele>937</ele>
        <time>2018-08-04T14:07:25Z</time>
      </trkpt>
      <trkpt lat="44.80796" lon="4.37254">
        <ele>932</ele>
        <time>2018-08-04T14:07:24Z</time>
      </trkpt>
      <trkpt lat="44.80808" lon="4.37264">
        <ele>939</ele>
        <time>2018-08-04T14:07:08Z</time>
      </trkpt>
      <trkpt lat="44.8082" lon="4.37279">
        <ele>932</ele>
        <time>2018-08-04T14:06:52Z</time>
      </trkpt>
      <trkpt lat="44.80839" lon="4.37294">
        <ele>937</ele>
        <time>2018-08-04T14:06:32Z</time>
      </trkpt>
      <trkpt lat="44.80853" lon="4.37309">
        <ele>929</ele>
        <time>2018-08-04T14:06:32Z</time>
      </trkpt>
      <trkpt lat="44.80865" lon="4.37324">
        <ele>934</ele>
        <time>2018-08-04T14:06:13Z</time>
      </trkpt>
      <trkpt lat="44.80863" lon="4.37333">
        <ele>934</ele>
        <time>2018-08-04T14:05:56Z</time>
      </trkpt>
      <trkpt lat="44.80861" lon="4.37344">
        <ele>934</ele>
        <time>2018-08-04T14:05:56Z</time>
      </trkpt>
      <trkpt lat="44.80863" lon="4.37364">
        <ele>938</ele>
        <time>2018-08-04T14:05:40Z</time>
      </trkpt>
      <trkpt lat="44.80865" lon="4.37382">
        <ele>939</ele>
        <time>2018-08-04T14:05:24Z</time>
      </trkpt>
      <trkpt lat="44.80868" lon="4.37395">
        <ele>939</ele>
        <time>2018-08-04T14:05:24Z</time>
      </trkpt>
      <trkpt lat="44.80873" lon="4.37408">
        <ele>941</ele>
        <time>2018-08-04T14:04:28Z</time>
      </trkpt>
      <trkpt lat="44.80874" lon="4.37408">
        <ele>941</ele>
        <time>2018-08-04T14:03:52Z</time>
      </trkpt>
      <trkpt lat="44.80871" lon="4.37412">
        <ele>941</ele>
        <time>2018-08-04T14:03:51Z</time>
      </trkpt>
      <trkpt lat="44.80858" lon="4.37402">
        <ele>939</ele>
        <time>2018-08-04T14:02:34Z</time>
      </trkpt>
      <trkpt lat="44.80858" lon="4.37389">
        <ele>939</ele>
        <time>2018-08-04T14:02:17Z</time>
      </trkpt>
      <trkpt lat="44.80854" lon="4.37377">
        <ele>939</ele>
        <time>2018-08-04T14:02:16Z</time>
      </trkpt>
      <trkpt lat="44.80846" lon="4.37353">
        <ele>950</ele>
        <time>2018-08-04T14:02:01Z</time>
      </trkpt>
      <trkpt lat="44.80823" lon="4.37329">
        <ele>946</ele>
        <time>2018-08-04T14:01:15Z</time>
      </trkpt>
      <trkpt lat="44.808" lon="4.3733">
        <ele>957</ele>
        <time>2018-08-04T14:01:15Z</time>
      </trkpt>
      <trkpt lat="44.80784" lon="4.37329">
        <ele>963</ele>
        <time>2018-08-04T14:00:56Z</time>
      </trkpt>
      <trkpt lat="44.80758" lon="4.37326">
        <ele>974</ele>
        <time>2018-08-04T14:00:31Z</time>
      </trkpt>
      <trkpt lat="44.8075" lon="4.37326">
        <ele>974</ele>
        <time>2018-08-04T14:00:31Z</time>
      </trkpt>
      <trkpt lat="44.80716" lon="4.37321">
        <ele>982</ele>
        <time>2018-08-04T14:00:09Z</time>
      </trkpt>
      <trkpt lat="44.80705" lon="4.37322">
        <ele>989</ele>
        <time>2018-08-04T13:59:39Z</time>
      </trkpt>
      <trkpt lat="44.80689" lon="4.37314">
        <ele>982</ele>
        <time>2018-08-04T13:59:16Z</time>
      </trkpt>
      <trkpt lat="44.80676" lon="4.37302">
        <ele>992</ele>
        <time>2018-08-04T13:59:16Z</time>
      </trkpt>
      <trkpt lat="44.80668" lon="4.3729">
        <ele>987</ele>
        <time>2018-08-04T13:59:00Z</time>
      </trkpt>
      <trkpt lat="44.80652" lon="4.37285">
        <ele>999</ele>
        <time>2018-08-04T13:58:45Z</time>
      </trkpt>
      <trkpt lat="44.80645" lon="4.37274">
        <ele>999</ele>
        <time>2018-08-04T13:58:28Z</time>
      </trkpt>
      <trkpt lat="44.80633" lon="4.37266">
        <ele>999</ele>
        <time>2018-08-04T13:58:28Z</time>
      </trkpt>
      <trkpt lat="44.80614" lon="4.37254">
        <ele>1000</ele>
        <time>2018-08-04T13:58:12Z</time>
      </trkpt>
      <trkpt lat="44.80597" lon="4.3725">
        <ele>1000</ele>
        <time>2018-08-04T13:57:56Z</time>
      </trkpt>
      <trkpt lat="44.80586" lon="4.37247">
        <ele>1009</ele>
        <time>2018-08-04T13:57:41Z</time>
      </trkpt>
      <trkpt lat="44.80571" lon="4.37241">
        <ele>1009</ele>
        <time>2018-08-04T13:57:41Z</time>
      </trkpt>
      <trkpt lat="44.80551" lon="4.37227">
        <ele>1004</ele>
        <time>2018-08-04T13:57:24Z</time>
      </trkpt>
      <trkpt lat="44.80527" lon="4.37218">
        <ele>1014</ele>
        <time>2018-08-04T13:57:07Z</time>
      </trkpt>
      <trkpt lat="44.80523" lon="4.37214">
        <ele>1014</ele>
        <time>2018-08-04T13:57:04Z</time>
      </trkpt>
      <trkpt lat="44.80506" lon="4.37207">
        <ele>1019</ele>
        <time>2018-08-04T13:56:37Z</time>
      </trkpt>
      <trkpt lat="44.80491" lon="4.37197">
        <ele>1019</ele>
        <time>2018-08-04T13:56:16Z</time>
      </trkpt>
      <trkpt lat="44.80479" lon="4.37181">
        <ele>1032</ele>
        <time>2018-08-04T13:56:00Z</time>
      </trkpt>
      <trkpt lat="44.80478" lon="4.37159">
        <ele>1031</ele>
        <time>2018-08-04T13:56:00Z</time>
      </trkpt>
      <trkpt lat="44.80477" lon="4.37149">
        <ele>1027</ele>
        <time>2018-08-04T13:55:32Z</time>
      </trkpt>
      <trkpt lat="44.80459" lon="4.37128">
        <ele>1027</ele>
        <time>2018-08-04T13:55:05Z</time>
      </trkpt>
      <trkpt lat="44.80433" lon="4.37089">
        <ele>1029</ele>
        <time>2018-08-04T13:55:03Z</time>
      </trkpt>
      <trkpt lat="44.80425" lon="4.37069">
        <ele>1043</ele>
        <time>2018-08-04T13:54:32Z</time>
      </trkpt>
      <trkpt lat="44.80416" lon="4.37048">
        <ele>1043</ele>
        <time>2018-08-04T13:54:15Z</time>
      </trkpt>
      <trkpt lat="44.80405" lon="4.37021">
        <ele>1040</ele>
        <time>2018-08-04T13:53:45Z</time>
      </trkpt>
      <trkpt lat="44.804" lon="4.36992">
        <ele>1059</ele>
        <time>2018-08-04T13:53:45Z</time>
      </trkpt>
      <trkpt lat="44.80395" lon="4.36974">
        <ele>1058</ele>
        <time>2018-08-04T13:53:20Z</time>
      </trkpt>
      <trkpt lat="44.80391" lon="4.36956">
        <ele>1056</ele>
        <time>2018-08-04T13:53:04Z</time>
      </trkpt>
      <trkpt lat="44.80387" lon="4.36935">
        <ele>1056</ele>
        <time>2018-08-04T13:52:48Z</time>
      </trkpt>
      <trkpt lat="44.80376" lon="4.36917">
        <ele>1052</ele>
        <time>2018-08-04T13:52:48Z</time>
      </trkpt>
      <trkpt lat="44.80367" lon="4.36901">
        <ele>1061</ele>
        <time>2018-08-04T13:52:32Z</time>
      </trkpt>
      <trkpt lat="44.80359" lon="4.36887">
        <ele>1061</ele>
        <time>2018-08-04T13:52:16Z</time>
      </trkpt>
      <trkpt lat="44.80353" lon="4.36876">
        <ele>1061</ele>
        <time>2018-08-04T13:52:00Z</time>
      </trkpt>
      <trkpt lat="44.80347" lon="4.3687">
        <ele>1068</ele>
        <time>2018-08-04T13:52:00Z</time>
      </trkpt>
      <trkpt lat="44.80347" lon="4.36861">
        <ele>1068</ele>
        <time>2018-08-04T13:51:18Z</time>
      </trkpt>
      <trkpt lat="44.80331" lon="4.36836">
        <ele>1059</ele>
        <time>2018-08-04T13:50:58Z</time>
      </trkpt>
      <trkpt lat="44.80308" lon="4.36804">
        <ele>1059</ele>
        <time>2018-08-04T13:50:56Z</time>
      </trkpt>
      <trkpt lat="44.80294" lon="4.36791">
        <ele>1053</ele>
        <time>2018-08-04T13:50:21Z</time>
      </trkpt>
      <trkpt lat="44.80275" lon="4.36761">
        <ele>1060</ele>
        <time>2018-08-04T13:49:54Z</time>
      </trkpt>
      <trkpt lat="44.80265" lon="4.36741">
        <ele>1060</ele>
        <time>2018-08-04T13:49:53Z</time>
      </trkpt>
      <trkpt lat="44.80251" lon="4.36708">
        <ele>1063</ele>
        <time>2018-08-04T13:49:36Z</time>
      </trkpt>
      <trkpt lat="44.80241" lon="4.36683">
        <ele>1063</ele>
        <time>2018-08-04T13:49:10Z</time>
      </trkpt>
      <trkpt lat="44.80228" lon="4.3664">
        <ele>1069</ele>
        <time>2018-08-04T13:48:32Z</time>
      </trkpt>
      <trkpt lat="44.80218" lon="4.36586">
        <ele>1066</ele>
        <time>2018-08-04T13:48:32Z</time>
      </trkpt>
      <trkpt lat="44.80205" lon="4.36535">
        <ele>1077</ele>
        <time>2018-08-04T13:47:49Z</time>
      </trkpt>
      <trkpt lat="44.802" lon="4.36522">
        <ele>1077</ele>
        <time>2018-08-04T13:47:13Z</time>
      </trkpt>
      <trkpt lat="44.80186" lon="4.3648">
        <ele>1074</ele>
        <time>2018-08-04T13:46:47Z</time>
      </trkpt>
      <trkpt lat="44.80175" lon="4.36457">
        <ele>1079</ele>
        <time>2018-08-04T13:46:46Z</time>
      </trkpt>
      <trkpt lat="44.80165" lon="4.36451">
        <ele>1079</ele>
        <time>2018-08-04T13:46:26Z</time>
      </trkpt>
      <trkpt lat="44.80165" lon="4.36432">
        <ele>1079</ele>
        <time>2018-08-04T13:45:52Z</time>
      </trkpt>
      <trkpt lat="44.80185" lon="4.36432">
        <ele>1075</ele>
        <time>2018-08-04T13:45:32Z</time>
      </trkpt>
      <trkpt lat="44.80202" lon="4.36405">
        <ele>1078</ele>
        <time>2018-08-04T13:45:31Z</time>
      </trkpt>
      <trkpt lat="44.80218" lon="4.36419">
        <ele>1080</ele>
        <time>2018-08-04T13:44:44Z</time>
      </trkpt>
      <trkpt lat="44.80231" lon="4.36439">
        <ele>1077</ele>
        <time>2018-08-04T13:44:16Z</time>
      </trkpt>
      <trkpt lat="44.80244" lon="4.36453">
        <ele>1086</ele>
        <time>2018-08-04T13:44:02Z</time>
      </trkpt>
      <trkpt lat="44.80269" lon="4.36491">
        <ele>1084</ele>
        <time>2018-08-04T13:43:59Z</time>
      </trkpt>
      <trkpt lat="44.80296" lon="4.36513">
        <ele>1094</ele>
        <time>2018-08-04T13:43:25Z</time>
      </trkpt>
      <trkpt lat="44.80327" lon="4.36524">
        <ele>1095</ele>
        <time>2018-08-04T13:42:53Z</time>
      </trkpt>
      <trkpt lat="44.80345" lon="4.36548">
        <ele>1086</ele>
        <time>2018-08-04T13:42:16Z</time>
      </trkpt>
      <trkpt lat="44.80355" lon="4.36554">
        <ele>1092</ele>
        <time>2018-08-04T13:42:16Z</time>
      </trkpt>
      <trkpt lat="44.80363" lon="4.36558">
        <ele>1092</ele>
        <time>2018-08-04T13:42:00Z</time>
      </trkpt>
      <trkpt lat="44.80368" lon="4.36558">
        <ele>1092</ele>
        <time>2018-08-04T13:41:28Z</time>
      </trkpt>
      <trkpt lat="44.80359" lon="4.36551">
        <ele>1092</ele>
        <time>2018-08-04T13:41:28Z</time>
      </trkpt>
      <trkpt lat="44.80333" lon="4.3653">
        <ele>1095</ele>
        <time>2018-08-04T13:41:13Z</time>
      </trkpt>
      <trkpt lat="44.80314" lon="4.36513">
        <ele>1094</ele>
        <time>2018-08-04T13:40:29Z</time>
      </trkpt>
      <trkpt lat="44.80291" lon="4.36482">
        <ele>1092</ele>
        <time>2018-08-04T13:39:58Z</time>
      </trkpt>
      <trkpt lat="44.80286" lon="4.36467">
        <ele>1092</ele>
        <time>2018-08-04T13:39:56Z</time>
      </trkpt>
      <trkpt lat="44.80273" lon="4.36443">
        <ele>1099</ele>
        <time>2018-08-04T13:39:37Z</time>
      </trkpt>
      <trkpt lat="44.80259" lon="4.36415">
        <ele>1090</ele>
        <time>2018-08-04T13:39:08Z</time>
      </trkpt>
      <trkpt lat="44.80257" lon="4.36406">
        <ele>1090</ele>
        <time>2018-08-04T13:38:47Z</time>
      </trkpt>
      <trkpt lat="44.80256" lon="4.36387">
        <ele>1092</ele>
        <time>2018-08-04T13:38:47Z</time>
      </trkpt>
      <trkpt lat="44.80261" lon="4.36376">
        <ele>1092</ele>
        <time>2018-08-04T13:38:25Z</time>
      </trkpt>
      <trkpt lat="44.8027" lon="4.36361">
        <ele>1100</ele>
        <time>2018-08-04T13:37:55Z</time>
      </trkpt>
      <trkpt lat="44.80272" lon="4.36359">
        <ele>1100</ele>
        <time>2018-08-04T13:37:55Z</time>
      </trkpt>
      <trkpt lat="44.80271" lon="4.36348">
        <ele>1100</ele>
        <time>2018-08-04T13:37:27Z</time>
      </trkpt>
      <trkpt lat="44.80267" lon="4.36343">
        <ele>1100</ele>
        <time>2018-08-04T13:24:04Z</time>
      </trkpt>
      <trkpt lat="44.80273" lon="4.36361">
        <ele>1100</ele>
        <time>2018-08-04T13:24:04Z</time>
      </trkpt>
      <trkpt lat="44.80276" lon="4.36379">
        <ele>1103</ele>
        <time>2018-08-04T13:23:48Z</time>
      </trkpt>
      <trkpt lat="44.80273" lon="4.36391">
        <ele>1103</ele>
        <time>2018-08-04T13:23:34Z</time>
      </trkpt>
      <trkpt lat="44.80278" lon="4.3642">
        <ele>1102</ele>
        <time>2018-08-04T13:23:07Z</time>
      </trkpt>
      <trkpt lat="44.80313" lon="4.36446">
        <ele>1109</ele>
        <time>2018-08-04T13:23:04Z</time>
      </trkpt>
      <trkpt lat="44.80339" lon="4.36463">
        <ele>1110</ele>
        <time>2018-08-04T13:22:32Z</time>
      </trkpt>
      <trkpt lat="44.80357" lon="4.36471">
        <ele>1114</ele>
        <time>2018-08-04T13:22:06Z</time>
      </trkpt>
      <trkpt lat="44.80382" lon="4.36475">
        <ele>1113</ele>
        <time>2018-08-04T13:21:38Z</time>
      </trkpt>
      <trkpt lat="44.80391" lon="4.3647">
        <ele>1113</ele>
        <time>2018-08-04T13:21:36Z</time>
      </trkpt>
      <trkpt lat="44.80396" lon="4.36464">
        <ele>1113</ele>
        <time>2018-08-04T13:21:21Z</time>
      </trkpt>
      <trkpt lat="44.80425" lon="4.36446">
        <ele>1120</ele>
        <time>2018-08-04T13:20:48Z</time>
      </trkpt>
      <trkpt lat="44.80446" lon="4.36416">
        <ele>1122</ele>
        <time>2018-08-04T13:20:48Z</time>
      </trkpt>
      <trkpt lat="44.8046" lon="4.3638">
        <ele>1121</ele>
        <time>2018-08-04T13:20:16Z</time>
      </trkpt>
      <trkpt lat="44.80468" lon="4.36357">
        <ele>1125</ele>
        <time>2018-08-04T13:19:34Z</time>
      </trkpt>
      <trkpt lat="44.80455" lon="4.36352">
        <ele>1131</ele>
        <time>2018-08-04T13:19:34Z</time>
      </trkpt>
      <trkpt lat="44.80439" lon="4.36354">
        <ele>1131</ele>
        <time>2018-08-04T13:19:21Z</time>
      </trkpt>
      <trkpt lat="44.80424" lon="4.36343">
        <ele>1134</ele>
        <time>2018-08-04T13:18:59Z</time>
      </trkpt>
      <trkpt lat="44.80421" lon="4.36329">
        <ele>1134</ele>
        <time>2018-08-04T13:18:28Z</time>
      </trkpt>
      <trkpt lat="44.80417" lon="4.36309">
        <ele>1135</ele>
        <time>2018-08-04T13:18:28Z</time>
      </trkpt>
      <trkpt lat="44.80419" lon="4.36292">
        <ele>1135</ele>
        <time>2018-08-04T13:18:12Z</time>
      </trkpt>
      <trkpt lat="44.80433" lon="4.36285">
        <ele>1138</ele>
        <time>2018-08-04T13:17:56Z</time>
      </trkpt>
      <trkpt lat="44.80447" lon="4.36275">
        <ele>1138</ele>
        <time>2018-08-04T13:17:40Z</time>
      </trkpt>
      <trkpt lat="44.80457" lon="4.36264">
        <ele>1143</ele>
        <time>2018-08-04T13:17:40Z</time>
      </trkpt>
      <trkpt lat="44.80464" lon="4.36252">
        <ele>1140</ele>
        <time>2018-08-04T13:17:24Z</time>
      </trkpt>
      <trkpt lat="44.80468" lon="4.36243">
        <ele>1140</ele>
        <time>2018-08-04T13:17:04Z</time>
      </trkpt>
      <trkpt lat="44.80473" lon="4.36226">
        <ele>1146</ele>
        <time>2018-08-04T13:17:04Z</time>
      </trkpt>
      <trkpt lat="44.80479" lon="4.36215">
        <ele>1146</ele>
        <time>2018-08-04T13:16:48Z</time>
      </trkpt>
      <trkpt lat="44.80478" lon="4.36209">
        <ele>1146</ele>
        <time>2018-08-04T13:16:33Z</time>
      </trkpt>
      <trkpt lat="44.80463" lon="4.36203">
        <ele>1152</ele>
        <time>2018-08-04T13:16:10Z</time>
      </trkpt>
      <trkpt lat="44.80448" lon="4.36193">
        <ele>1152</ele>
        <time>2018-08-04T13:16:10Z</time>
      </trkpt>
      <trkpt lat="44.80461" lon="4.36175">
        <ele>1156</ele>
        <time>2018-08-04T13:15:40Z</time>
      </trkpt>
      <trkpt lat="44.80492" lon="4.3617">
        <ele>1155</ele>
        <time>2018-08-04T13:15:02Z</time>
      </trkpt>
      <trkpt lat="44.8051" lon="4.36153">
        <ele>1163</ele>
        <time>2018-08-04T13:14:32Z</time>
      </trkpt>
      <trkpt lat="44.80517" lon="4.36144">
        <ele>1155</ele>
        <time>2018-08-04T13:14:32Z</time>
      </trkpt>
      <trkpt lat="44.80524" lon="4.36135">
        <ele>1155</ele>
        <time>2018-08-04T13:14:18Z</time>
      </trkpt>
      <trkpt lat="44.80532" lon="4.36117">
        <ele>1162</ele>
        <time>2018-08-04T13:14:00Z</time>
      </trkpt>
      <trkpt lat="44.80539" lon="4.36109">
        <ele>1162</ele>
        <time>2018-08-04T13:13:44Z</time>
      </trkpt>
      <trkpt lat="44.80547" lon="4.36098">
        <ele>1149</ele>
        <time>2018-08-04T13:13:44Z</time>
      </trkpt>
      <trkpt lat="44.80555" lon="4.36094">
        <ele>1154</ele>
        <time>2018-08-04T13:13:28Z</time>
      </trkpt>
      <trkpt lat="44.80563" lon="4.3608">
        <ele>1154</ele>
        <time>2018-08-04T13:13:10Z</time>
      </trkpt>
      <trkpt lat="44.80567" lon="4.36063">
        <ele>1157</ele>
        <time>2018-08-04T13:12:52Z</time>
      </trkpt>
      <trkpt lat="44.80569" lon="4.36049">
        <ele>1157</ele>
        <time>2018-08-04T13:12:52Z</time>
      </trkpt>
      <trkpt lat="44.80569" lon="4.36028">
        <ele>1156</ele>
        <time>2018-08-04T13:12:38Z</time>
      </trkpt>
      <trkpt lat="44.80563" lon="4.36003">
        <ele>1154</ele>
        <time>2018-08-04T13:12:16Z</time>
      </trkpt>
      <trkpt lat="44.80564" lon="4.3598">
        <ele>1152</ele>
        <time>2018-08-04T13:12:00Z</time>
      </trkpt>
      <trkpt lat="44.80565" lon="4.35958">
        <ele>1152</ele>
        <time>2018-08-04T13:12:00Z</time>
      </trkpt>
      <trkpt lat="44.80566" lon="4.35939">
        <ele>1152</ele>
        <time>2018-08-04T13:11:43Z</time>
      </trkpt>
      <trkpt lat="44.80565" lon="4.35917">
        <ele>1152</ele>
        <time>2018-08-04T13:11:26Z</time>
      </trkpt>
      <trkpt lat="44.80566" lon="4.35898">
        <ele>1152</ele>
        <time>2018-08-04T13:11:08Z</time>
      </trkpt>
      <trkpt lat="44.8057" lon="4.3588">
        <ele>1140</ele>
        <time>2018-08-04T13:11:08Z</time>
      </trkpt>
      <trkpt lat="44.80571" lon="4.35864">
        <ele>1142</ele>
        <time>2018-08-04T13:10:52Z</time>
      </trkpt>
      <trkpt lat="44.80576" lon="4.35844">
        <ele>1146</ele>
        <time>2018-08-04T13:10:36Z</time>
      </trkpt>
      <trkpt lat="44.80579" lon="4.35825">
        <ele>1146</ele>
        <time>2018-08-04T13:10:20Z</time>
      </trkpt>
      <trkpt lat="44.80594" lon="4.35781">
        <ele>1151</ele>
        <time>2018-08-04T13:10:20Z</time>
      </trkpt>
      <trkpt lat="44.806" lon="4.35765">
        <ele>1144</ele>
        <time>2018-08-04T13:09:48Z</time>
      </trkpt>
      <trkpt lat="44.80609" lon="4.35748">
        <ele>1149</ele>
        <time>2018-08-04T13:09:34Z</time>
      </trkpt>
      <trkpt lat="44.80624" lon="4.35721">
        <ele>1155</ele>
        <time>2018-08-04T13:09:12Z</time>
      </trkpt>
      <trkpt lat="44.80644" lon="4.35689">
        <ele>1155</ele>
        <time>2018-08-04T13:09:08Z</time>
      </trkpt>
      <trkpt lat="44.80655" lon="4.3567">
        <ele>1154</ele>
        <time>2018-08-04T13:08:32Z</time>
      </trkpt>
      <trkpt lat="44.8068" lon="4.35635">
        <ele>1162</ele>
        <time>2018-08-04T13:08:16Z</time>
      </trkpt>
      <trkpt lat="44.80682" lon="4.35633">
        <ele>1155</ele>
        <time>2018-08-04T13:08:14Z</time>
      </trkpt>
      <trkpt lat="44.80691" lon="4.35622">
        <ele>1163</ele>
        <time>2018-08-04T13:06:56Z</time>
      </trkpt>
      <trkpt lat="44.8071" lon="4.35592">
        <ele>1168</ele>
        <time>2018-08-04T13:06:30Z</time>
      </trkpt>
      <trkpt lat="44.80728" lon="4.35576">
        <ele>1168</ele>
        <time>2018-08-04T13:06:07Z</time>
      </trkpt>
      <trkpt lat="44.80751" lon="4.35556">
        <ele>1168</ele>
        <time>2018-08-04T13:06:07Z</time>
      </trkpt>
      <trkpt lat="44.80765" lon="4.35549">
        <ele>1166</ele>
        <time>2018-08-04T13:05:43Z</time>
      </trkpt>
      <trkpt lat="44.8077" lon="4.35536">
        <ele>1170</ele>
        <time>2018-08-04T13:05:19Z</time>
      </trkpt>
      <trkpt lat="44.80773" lon="4.35524">
        <ele>1170</ele>
        <time>2018-08-04T13:05:18Z</time>
      </trkpt>
      <trkpt lat="44.8079" lon="4.35523">
        <ele>1170</ele>
        <time>2018-08-04T13:04:35Z</time>
      </trkpt>
      <trkpt lat="44.80803" lon="4.35529">
        <ele>1167</ele>
        <time>2018-08-04T13:04:16Z</time>
      </trkpt>
      <trkpt lat="44.80811" lon="4.3553">
        <ele>1167</ele>
        <time>2018-08-04T13:04:16Z</time>
      </trkpt>
      <trkpt lat="44.80824" lon="4.35533">
        <ele>1164</ele>
        <time>2018-08-04T13:03:53Z</time>
      </trkpt>
      <trkpt lat="44.80846" lon="4.35532">
        <ele>1164</ele>
        <time>2018-08-04T13:03:29Z</time>
      </trkpt>
      <trkpt lat="44.80855" lon="4.35528">
        <ele>1162</ele>
        <time>2018-08-04T13:03:08Z</time>
      </trkpt>
      <trkpt lat="44.80866" lon="4.35522">
        <ele>1162</ele>
        <time>2018-08-04T13:03:08Z</time>
      </trkpt>
      <trkpt lat="44.80871" lon="4.35507">
        <ele>1163</ele>
        <time>2018-08-04T13:02:52Z</time>
      </trkpt>
      <trkpt lat="44.80872" lon="4.35492">
        <ele>1163</ele>
        <time>2018-08-04T13:02:36Z</time>
      </trkpt>
      <trkpt lat="44.80871" lon="4.35476">
        <ele>1161</ele>
        <time>2018-08-04T13:02:20Z</time>
      </trkpt>
      <trkpt lat="44.80872" lon="4.35461">
        <ele>1161</ele>
        <time>2018-08-04T13:02:20Z</time>
      </trkpt>
      <trkpt lat="44.80871" lon="4.35446">
        <ele>1160</ele>
        <time>2018-08-04T13:02:04Z</time>
      </trkpt>
      <trkpt lat="44.80869" lon="4.3543">
        <ele>1155</ele>
        <time>2018-08-04T13:01:48Z</time>
      </trkpt>
      <trkpt lat="44.80866" lon="4.35417">
        <ele>1155</ele>
        <time>2018-08-04T13:01:32Z</time>
      </trkpt>
      <trkpt lat="44.8086" lon="4.35404">
        <ele>1155</ele>
        <time>2018-08-04T13:01:32Z</time>
      </trkpt>
      <trkpt lat="44.80855" lon="4.35385">
        <ele>1153</ele>
        <time>2018-08-04T13:01:20Z</time>
      </trkpt>
      <trkpt lat="44.80853" lon="4.35379">
        <ele>1153</ele>
        <time>2018-08-04T13:00:59Z</time>
      </trkpt>
      <trkpt lat="44.80844" lon="4.35359">
        <ele>1152</ele>
        <time>2018-08-04T13:00:56Z</time>
      </trkpt>
      <trkpt lat="44.80832" lon="4.35342">
        <ele>1147</ele>
        <time>2018-08-04T13:00:28Z</time>
      </trkpt>
      <trkpt lat="44.80814" lon="4.35325">
        <ele>1150</ele>
        <time>2018-08-04T13:00:15Z</time>
      </trkpt>
      <trkpt lat="44.80796" lon="4.353">
        <ele>1148</ele>
        <time>2018-08-04T13:00:15Z</time>
      </trkpt>
      <trkpt lat="44.8078" lon="4.3529">
        <ele>1146</ele>
        <time>2018-08-04T12:59:10Z</time>
      </trkpt>
      <trkpt lat="44.80765" lon="4.35275">
        <ele>1143.3</ele>
        <time>2018-08-04T12:58:41Z</time>
      </trkpt>
      <trkpt lat="44.8079" lon="4.35194">
        <ele>1140</ele>
      </trkpt>
      <trkpt lat="44.80812" lon="4.35097">
        <ele>1136.3</ele>
      </trkpt>
      <trkpt lat="44.80839" lon="4.35018">
        <ele>1132.4</ele>
      </trkpt>
      <trkpt lat="44.8084" lon="4.34984">
        <ele>1130.5</ele>
      </trkpt>
      <trkpt lat="44.80829" lon="4.3494">
        <ele>1128.9</ele>
      </trkpt>
      <trkpt lat="44.80799" lon="4.34832">
        <ele>1123.3</ele>
      </trkpt>
      <trkpt lat="44.8078" lon="4.34712">
        <ele>1120.6</ele>
      </trkpt>
      <trkpt lat="44.80782" lon="4.34688">
        <ele>1120</ele>
      </trkpt>
      <trkpt lat="44.80785" lon="4.34664">
        <ele>1119.6</ele>
      </trkpt>
      <trkpt lat="44.80793" lon="4.34644">
        <ele>1118.7</ele>
      </trkpt>
      <trkpt lat="44.80794" lon="4.34613">
        <ele>1118.6</ele>
      </trkpt>
      <trkpt lat="44.80765" lon="4.34594">
        <ele>1117.8</ele>
      </trkpt>
      <trkpt lat="44.8079" lon="4.34619">
        <ele>1118.4</ele>
      </trkpt>
      <trkpt lat="44.80784" lon="4.34643">
        <ele>1118.5</ele>
      </trkpt>
      <trkpt lat="44.80774" lon="4.34694">
        <ele>1119.6</ele>
      </trkpt>
      <trkpt lat="44.80773" lon="4.34722">
        <ele>1120.3</ele>
      </trkpt>
      <trkpt lat="44.80779" lon="4.34762">
        <ele>1120.6</ele>
      </trkpt>
      <trkpt lat="44.80817" lon="4.34921">
        <ele>1128.3</ele>
      </trkpt>
      <trkpt lat="44.80832" lon="4.34979">
        <ele>1130</ele>
      </trkpt>
      <trkpt lat="44.80833" lon="4.35004">
        <ele>1131.3</ele>
      </trkpt>
      <trkpt lat="44.80799" lon="4.35114">
        <ele>1136.3</ele>
      </trkpt>
      <trkpt lat="44.80758" lon="4.35264">
        <ele>1142</ele>
        <time>2018-08-04T12:13:44Z</time>
      </trkpt>
      <trkpt lat="44.80755" lon="4.35275">
        <ele>1146</ele>
        <time>2018-08-04T12:13:31Z</time>
      </trkpt>
      <trkpt lat="44.80747" lon="4.35284">
        <ele>1146</ele>
        <time>2018-08-04T12:13:09Z</time>
      </trkpt>
      <trkpt lat="44.80737" lon="4.35292">
        <ele>1146</ele>
        <time>2018-08-04T12:13:07Z</time>
      </trkpt>
      <trkpt lat="44.80719" lon="4.35287">
        <ele>1147</ele>
        <time>2018-08-04T12:12:48Z</time>
      </trkpt>
      <trkpt lat="44.80714" lon="4.35284">
        <ele>1147</ele>
        <time>2018-08-04T12:12:30Z</time>
      </trkpt>
      <trkpt lat="44.807" lon="4.3528">
        <ele>1146</ele>
        <time>2018-08-04T12:12:30Z</time>
      </trkpt>
      <trkpt lat="44.80693" lon="4.35277">
        <ele>1146</ele>
        <time>2018-08-04T12:12:14Z</time>
      </trkpt>
      <trkpt lat="44.80685" lon="4.3528">
        <ele>1146</ele>
        <time>2018-08-04T12:10:48Z</time>
      </trkpt>
      <trkpt lat="44.80668" lon="4.35284">
        <ele>1146</ele>
        <time>2018-08-04T12:10:48Z</time>
      </trkpt>
      <trkpt lat="44.80642" lon="4.35291">
        <ele>1147</ele>
        <time>2018-08-04T12:10:29Z</time>
      </trkpt>
      <trkpt lat="44.80625" lon="4.35294">
        <ele>1151</ele>
        <time>2018-08-04T12:09:52Z</time>
      </trkpt>
      <trkpt lat="44.8061" lon="4.35301">
        <ele>1151</ele>
        <time>2018-08-04T12:09:36Z</time>
      </trkpt>
      <trkpt lat="44.80593" lon="4.35306">
        <ele>1151</ele>
        <time>2018-08-04T12:09:36Z</time>
      </trkpt>
      <trkpt lat="44.80572" lon="4.35315">
        <ele>1151</ele>
        <time>2018-08-04T12:09:24Z</time>
      </trkpt>
      <trkpt lat="44.80551" lon="4.35327">
        <ele>1155</ele>
        <time>2018-08-04T12:08:53Z</time>
      </trkpt>
      <trkpt lat="44.80541" lon="4.3533">
        <ele>1155</ele>
        <time>2018-08-04T12:08:36Z</time>
      </trkpt>
      <trkpt lat="44.80532" lon="4.35336">
        <ele>1155</ele>
        <time>2018-08-04T12:08:36Z</time>
      </trkpt>
      <trkpt lat="44.80521" lon="4.35347">
        <ele>1158</ele>
        <time>2018-08-04T12:08:20Z</time>
      </trkpt>
      <trkpt lat="44.80509" lon="4.35356">
        <ele>1156</ele>
        <time>2018-08-04T12:08:04Z</time>
      </trkpt>
      <trkpt lat="44.80493" lon="4.35363">
        <ele>1156</ele>
        <time>2018-08-04T12:07:48Z</time>
      </trkpt>
      <trkpt lat="44.8048" lon="4.35372">
        <ele>1154</ele>
        <time>2018-08-04T12:07:48Z</time>
      </trkpt>
      <trkpt lat="44.80469" lon="4.35381">
        <ele>1160</ele>
        <time>2018-08-04T12:07:32Z</time>
      </trkpt>
      <trkpt lat="44.80455" lon="4.35393">
        <ele>1159</ele>
        <time>2018-08-04T12:07:04Z</time>
      </trkpt>
      <trkpt lat="44.80447" lon="4.354">
        <ele>1159</ele>
        <time>2018-08-04T12:07:04Z</time>
      </trkpt>
      <trkpt lat="44.80435" lon="4.35409">
        <ele>1164</ele>
        <time>2018-08-04T12:06:48Z</time>
      </trkpt>
      <trkpt lat="44.80425" lon="4.35423">
        <ele>1163</ele>
        <time>2018-08-04T12:06:32Z</time>
      </trkpt>
      <trkpt lat="44.80417" lon="4.35435">
        <ele>1166</ele>
        <time>2018-08-04T12:06:32Z</time>
      </trkpt>
      <trkpt lat="44.804" lon="4.3548">
        <ele>1165</ele>
        <time>2018-08-04T12:06:17Z</time>
      </trkpt>
      <trkpt lat="44.8039" lon="4.35497">
        <ele>1168</ele>
        <time>2018-08-04T12:05:46Z</time>
      </trkpt>
      <trkpt lat="44.80381" lon="4.35524">
        <ele>1171</ele>
        <time>2018-08-04T12:05:21Z</time>
      </trkpt>
      <trkpt lat="44.8037" lon="4.35561">
        <ele>1166</ele>
        <time>2018-08-04T12:05:20Z</time>
      </trkpt>
      <trkpt lat="44.80358" lon="4.3558">
        <ele>1171</ele>
        <time>2018-08-04T12:04:53Z</time>
      </trkpt>
      <trkpt lat="44.80348" lon="4.3559">
        <ele>1171</ele>
        <time>2018-08-04T12:04:32Z</time>
      </trkpt>
      <trkpt lat="44.80338" lon="4.35613">
        <ele>1171</ele>
        <time>2018-08-04T12:04:18Z</time>
      </trkpt>
      <trkpt lat="44.80301" lon="4.35658">
        <ele>1177</ele>
        <time>2018-08-04T12:04:16Z</time>
      </trkpt>
      <trkpt lat="44.80271" lon="4.35695">
        <ele>1173</ele>
        <time>2018-08-04T12:03:33Z</time>
      </trkpt>
      <trkpt lat="44.80231" lon="4.35731">
        <ele>1167</ele>
        <time>2018-08-04T12:02:50Z</time>
      </trkpt>
      <trkpt lat="44.80193" lon="4.35777">
        <ele>1172</ele>
        <time>2018-08-04T12:01:55Z</time>
      </trkpt>
      <trkpt lat="44.80168" lon="4.35799">
        <ele>1174</ele>
        <time>2018-08-04T12:01:52Z</time>
      </trkpt>
      <trkpt lat="44.80147" lon="4.35819">
        <ele>1173</ele>
        <time>2018-08-04T12:01:23Z</time>
      </trkpt>
      <trkpt lat="44.80135" lon="4.35828">
        <ele>1176</ele>
        <time>2018-08-04T12:00:58Z</time>
      </trkpt>
      <trkpt lat="44.80118" lon="4.35847">
        <ele>1171</ele>
        <time>2018-08-04T12:00:36Z</time>
      </trkpt>
      <trkpt lat="44.8011" lon="4.35861">
        <ele>1174</ele>
        <time>2018-08-04T12:00:36Z</time>
      </trkpt>
      <trkpt lat="44.80091" lon="4.35882">
        <ele>1174</ele>
        <time>2018-08-04T12:00:24Z</time>
      </trkpt>
      <trkpt lat="44.80083" lon="4.35895">
        <ele>1174</ele>
        <time>2018-08-04T11:59:58Z</time>
      </trkpt>
      <trkpt lat="44.80065" lon="4.35915">
        <ele>1174</ele>
        <time>2018-08-04T11:59:25Z</time>
      </trkpt>
      <trkpt lat="44.80053" lon="4.35938">
        <ele>1175</ele>
        <time>2018-08-04T11:59:25Z</time>
      </trkpt>
      <trkpt lat="44.80022" lon="4.35959">
        <ele>1174</ele>
        <time>2018-08-04T11:59:04Z</time>
      </trkpt>
      <trkpt lat="44.80003" lon="4.35975">
        <ele>1175</ele>
        <time>2018-08-04T11:58:28Z</time>
      </trkpt>
      <trkpt lat="44.7999" lon="4.35982">
        <ele>1175</ele>
        <time>2018-08-04T11:58:16Z</time>
      </trkpt>
      <trkpt lat="44.79975" lon="4.35991">
        <ele>1174</ele>
        <time>2018-08-04T11:58:12Z</time>
      </trkpt>
      <trkpt lat="44.79965" lon="4.35996">
        <ele>1175.6</ele>
      </trkpt>
      <trkpt lat="44.79975" lon="4.35989">
        <ele>1175</ele>
      </trkpt>
      <trkpt lat="44.79982" lon="4.35987">
        <ele>1174.5</ele>
      </trkpt>
      <trkpt lat="44.79978" lon="4.35992">
        <ele>1174.6</ele>
      </trkpt>
      <trkpt lat="44.79971" lon="4.36003">
        <ele>1174.4</ele>
      </trkpt>
      <trkpt lat="44.79965" lon="4.36017">
        <ele>1173.4</ele>
      </trkpt>
      <trkpt lat="44.79959" lon="4.3603">
        <ele>1172.6</ele>
      </trkpt>
      <trkpt lat="44.79957" lon="4.36039">
        <ele>1172</ele>
      </trkpt>
      <trkpt lat="44.79956" lon="4.36051">
        <ele>1171</ele>
      </trkpt>
      <trkpt lat="44.79954" lon="4.36064">
        <ele>1169.8</ele>
      </trkpt>
      <trkpt lat="44.79952" lon="4.36077">
        <ele>1168.9</ele>
      </trkpt>
      <trkpt lat="44.79946" lon="4.36098">
        <ele>1167.4</ele>
      </trkpt>
      <trkpt lat="44.79934" lon="4.36139">
        <ele>1164.6</ele>
      </trkpt>
      <trkpt lat="44.79931" lon="4.36152">
        <ele>1163.7</ele>
      </trkpt>
      <trkpt lat="44.79925" lon="4.36168">
        <ele>1163</ele>
      </trkpt>
      <trkpt lat="44.79904" lon="4.3622">
        <ele>1163.9</ele>
      </trkpt>
      <trkpt lat="44.79882" lon="4.36272">
        <ele>1166.3</ele>
      </trkpt>
      <trkpt lat="44.79877" lon="4.36283">
        <ele>1166.5</ele>
      </trkpt>
      <trkpt lat="44.79869" lon="4.36298">
        <ele>1166.7</ele>
      </trkpt>
      <trkpt lat="44.7986" lon="4.36316">
        <ele>1167</ele>
      </trkpt>
      <trkpt lat="44.79855" lon="4.36327">
        <ele>1167</ele>
      </trkpt>
      <trkpt lat="44.79851" lon="4.36342">
        <ele>1166</ele>
      </trkpt>
      <trkpt lat="44.7984" lon="4.36387">
        <ele>1162.2</ele>
      </trkpt>
      <trkpt lat="44.79832" lon="4.36415">
        <ele>1159.7</ele>
      </trkpt>
      <trkpt lat="44.79827" lon="4.36443">
        <ele>1158.6</ele>
      </trkpt>
      <trkpt lat="44.79823" lon="4.36478">
        <ele>1156.8</ele>
      </trkpt>
      <trkpt lat="44.7982" lon="4.36496">
        <ele>1155.8</ele>
      </trkpt>
      <trkpt lat="44.79818" lon="4.36508">
        <ele>1155.8</ele>
      </trkpt>
      <trkpt lat="44.79815" lon="4.36522">
        <ele>1156</ele>
      </trkpt>
      <trkpt lat="44.79811" lon="4.36544">
        <ele>1155.9</ele>
      </trkpt>
      <trkpt lat="44.7981" lon="4.36556">
        <ele>1155.6</ele>
      </trkpt>
      <trkpt lat="44.79811" lon="4.36566">
        <ele>1155.2</ele>
      </trkpt>
      <trkpt lat="44.79813" lon="4.36581">
        <ele>1154.5</ele>
      </trkpt>
      <trkpt lat="44.79816" lon="4.36591">
        <ele>1154.1</ele>
      </trkpt>
      <trkpt lat="44.79819" lon="4.36601">
        <ele>1153.6</ele>
      </trkpt>
      <trkpt lat="44.79823" lon="4.36609">
        <ele>1153.2</ele>
      </trkpt>
      <trkpt lat="44.79825" lon="4.36611">
        <ele>1153</ele>
      </trkpt>
      <trkpt lat="44.79807" lon="4.36624">
        <ele>1153.4</ele>
      </trkpt>
      <trkpt lat="44.79788" lon="4.36634">
        <ele>1153.3</ele>
      </trkpt>
      <trkpt lat="44.79771" lon="4.36639">
        <ele>1153.3</ele>
      </trkpt>
      <trkpt lat="44.79755" lon="4.36646">
        <ele>1153</ele>
      </trkpt>
      <trkpt lat="44.79743" lon="4.36658">
        <ele>1152.4</ele>
      </trkpt>
      <trkpt lat="44.79733" lon="4.36676">
        <ele>1151.1</ele>
      </trkpt>
      <trkpt lat="44.79726" lon="4.36687">
        <ele>1150</ele>
      </trkpt>
      <trkpt lat="44.79721" lon="4.36697">
        <ele>1148.9</ele>
      </trkpt>
      <trkpt lat="44.79704" lon="4.36719">
        <ele>1145.4</ele>
      </trkpt>
      <trkpt lat="44.79689" lon="4.36737">
        <ele>1141.8</ele>
      </trkpt>
      <trkpt lat="44.79674" lon="4.36751">
        <ele>1138.3</ele>
      </trkpt>
      <trkpt lat="44.79657" lon="4.36759">
        <ele>1136.5</ele>
      </trkpt>
      <trkpt lat="44.79641" lon="4.36763">
        <ele>1135.5</ele>
      </trkpt>
      <trkpt lat="44.79628" lon="4.36767">
        <ele>1134.4</ele>
      </trkpt>
      <trkpt lat="44.79612" lon="4.3678">
        <ele>1131.2</ele>
      </trkpt>
      <trkpt lat="44.79597" lon="4.36797">
        <ele>1126.5</ele>
      </trkpt>
      <trkpt lat="44.7959" lon="4.36814">
        <ele>1122.2</ele>
      </trkpt>
      <trkpt lat="44.79575" lon="4.36834">
        <ele>1116.4</ele>
      </trkpt>
      <trkpt lat="44.7955" lon="4.36856">
        <ele>1110.6</ele>
      </trkpt>
      <trkpt lat="44.79532" lon="4.36873">
        <ele>1105.5</ele>
      </trkpt>
      <trkpt lat="44.79519" lon="4.36881">
        <ele>1102.6</ele>
      </trkpt>
      <trkpt lat="44.79503" lon="4.36884">
        <ele>1100.5</ele>
      </trkpt>
      <trkpt lat="44.79476" lon="4.36887">
        <ele>1096.4</ele>
      </trkpt>
      <trkpt lat="44.7945" lon="4.36888">
        <ele>1092.7</ele>
      </trkpt>
      <trkpt lat="44.79441" lon="4.36886">
        <ele>1091.8</ele>
      </trkpt>
      <trkpt lat="44.79416" lon="4.36881">
        <ele>1089.4</ele>
      </trkpt>
      <trkpt lat="44.79402" lon="4.36879">
        <ele>1089.7</ele>
      </trkpt>
      <trkpt lat="44.79391" lon="4.36884">
        <ele>1088.4</ele>
      </trkpt>
      <trkpt lat="44.79364" lon="4.36915">
        <ele>1080.3</ele>
      </trkpt>
      <trkpt lat="44.79324" lon="4.36959">
        <ele>1064.5</ele>
      </trkpt>
      <trkpt lat="44.7931" lon="4.36971">
        <ele>1060.1</ele>
      </trkpt>
      <trkpt lat="44.79293" lon="4.36978">
        <ele>1057</ele>
      </trkpt>
      <trkpt lat="44.7926" lon="4.36979">
        <ele>1054.5</ele>
      </trkpt>
      <trkpt lat="44.79242" lon="4.36982">
        <ele>1053.3</ele>
      </trkpt>
      <trkpt lat="44.7923" lon="4.36991">
        <ele>1051.8</ele>
      </trkpt>
      <trkpt lat="44.79224" lon="4.3701">
        <ele>1049.5</ele>
      </trkpt>
      <trkpt lat="44.79222" lon="4.37031">
        <ele>1048.3</ele>
      </trkpt>
      <trkpt lat="44.79223" lon="4.37054">
        <ele>1046.4</ele>
      </trkpt>
      <trkpt lat="44.79229" lon="4.3707">
        <ele>1043.9</ele>
      </trkpt>
      <trkpt lat="44.79241" lon="4.3708">
        <ele>1039.8</ele>
      </trkpt>
      <trkpt lat="44.79257" lon="4.37097">
        <ele>1035.6</ele>
      </trkpt>
      <trkpt lat="44.79261" lon="4.37107">
        <ele>1034.4</ele>
      </trkpt>
      <trkpt lat="44.7926" lon="4.37138">
        <ele>1032.3</ele>
      </trkpt>
      <trkpt lat="44.79255" lon="4.37175">
        <ele>1029.9</ele>
      </trkpt>
      <trkpt lat="44.79249" lon="4.37217">
        <ele>1025.8</ele>
      </trkpt>
      <trkpt lat="44.79244" lon="4.37255">
        <ele>1022.1</ele>
      </trkpt>
      <trkpt lat="44.79236" lon="4.373">
        <ele>1018.2</ele>
      </trkpt>
      <trkpt lat="44.7923" lon="4.37337">
        <ele>1015.2</ele>
      </trkpt>
      <trkpt lat="44.79228" lon="4.37349">
        <ele>1014.5</ele>
      </trkpt>
      <trkpt lat="44.7922" lon="4.37382">
        <ele>1012.8</ele>
      </trkpt>
      <trkpt lat="44.7921" lon="4.37412">
        <ele>1012.5</ele>
      </trkpt>
      <trkpt lat="44.79199" lon="4.37443">
        <ele>1010.6</ele>
      </trkpt>
      <trkpt lat="44.7919" lon="4.37462">
        <ele>1009.4</ele>
      </trkpt>
      <trkpt lat="44.79184" lon="4.3748">
        <ele>1007.7</ele>
      </trkpt>
      <trkpt lat="44.79181" lon="4.37485">
        <ele>1007.5</ele>
      </trkpt>
      <trkpt lat="44.79181" lon="4.37486">
        <ele>1007.2</ele>
      </trkpt>
      <trkpt lat="44.79182" lon="4.37492">
        <ele>1005.8</ele>
      </trkpt>
      <trkpt lat="44.79178" lon="4.3751">
        <ele>1003.6</ele>
      </trkpt>
      <trkpt lat="44.79168" lon="4.37539">
        <ele>1001.2</ele>
      </trkpt>
      <trkpt lat="44.79158" lon="4.3757">
        <ele>998</ele>
      </trkpt>
      <trkpt lat="44.79149" lon="4.37596">
        <ele>995.5</ele>
      </trkpt>
      <trkpt lat="44.7914" lon="4.37613">
        <ele>994.5</ele>
      </trkpt>
      <trkpt lat="44.79133" lon="4.37622">
        <ele>994.6</ele>
      </trkpt>
      <trkpt lat="44.79131" lon="4.37625">
        <ele>994.4</ele>
      </trkpt>
      <trkpt lat="44.79132" lon="4.37627">
        <ele>994</ele>
      </trkpt>
      <trkpt lat="44.79127" lon="4.37631">
        <ele>990</ele>
        <time>2018-08-04T10:57:12Z</time>
      </trkpt>
      <trkpt lat="44.7912" lon="4.37638">
        <ele>993</ele>
        <time>2018-08-04T10:57:12Z</time>
      </trkpt>
      <trkpt lat="44.79117" lon="4.37643">
        <ele>993</ele>
        <time>2018-08-04T10:56:44Z</time>
      </trkpt>
      <trkpt lat="44.79114" lon="4.37646">
        <ele>993</ele>
        <time>2018-08-04T10:56:44Z</time>
      </trkpt>
      <trkpt lat="44.79104" lon="4.37651">
        <ele>993</ele>
        <time>2018-08-04T10:56:12Z</time>
      </trkpt>
      <trkpt lat="44.79098" lon="4.37657">
        <ele>991</ele>
        <time>2018-08-04T10:55:52Z</time>
      </trkpt>
      <trkpt lat="44.79097" lon="4.37667">
        <ele>991</ele>
        <time>2018-08-04T10:55:52Z</time>
      </trkpt>
      <trkpt lat="44.79099" lon="4.37684">
        <ele>991</ele>
        <time>2018-08-04T10:55:32Z</time>
      </trkpt>
      <trkpt lat="44.791" lon="4.37697">
        <ele>991</ele>
        <time>2018-08-04T10:55:16Z</time>
      </trkpt>
      <trkpt lat="44.79101" lon="4.37712">
        <ele>991</ele>
        <time>2018-08-04T10:55:16Z</time>
      </trkpt>
      <trkpt lat="44.79104" lon="4.37726">
        <ele>991</ele>
        <time>2018-08-04T10:55:00Z</time>
      </trkpt>
      <trkpt lat="44.79103" lon="4.37747">
        <ele>991</ele>
        <time>2018-08-04T10:54:44Z</time>
      </trkpt>
      <trkpt lat="44.79098" lon="4.37758">
        <ele>991</ele>
        <time>2018-08-04T10:54:28Z</time>
      </trkpt>
      <trkpt lat="44.79092" lon="4.37769">
        <ele>993</ele>
        <time>2018-08-04T10:54:28Z</time>
      </trkpt>
      <trkpt lat="44.79085" lon="4.3779">
        <ele>993</ele>
        <time>2018-08-04T10:54:12Z</time>
      </trkpt>
      <trkpt lat="44.79083" lon="4.37809">
        <ele>991</ele>
        <time>2018-08-04T10:53:56Z</time>
      </trkpt>
      <trkpt lat="44.79077" lon="4.37819">
        <ele>991</ele>
        <time>2018-08-04T10:53:40Z</time>
      </trkpt>
      <trkpt lat="44.79068" lon="4.37835">
        <ele>995</ele>
        <time>2018-08-04T10:53:40Z</time>
      </trkpt>
      <trkpt lat="44.79059" lon="4.37851">
        <ele>993</ele>
        <time>2018-08-04T10:53:24Z</time>
      </trkpt>
      <trkpt lat="44.79057" lon="4.37858">
        <ele>993</ele>
        <time>2018-08-04T10:53:08Z</time>
      </trkpt>
      <trkpt lat="44.79059" lon="4.37863">
        <ele>993</ele>
        <time>2018-08-04T10:53:08Z</time>
      </trkpt>
      <trkpt lat="44.79059" lon="4.37883">
        <ele>990</ele>
        <time>2018-08-04T10:51:04Z</time>
      </trkpt>
      <trkpt lat="44.79053" lon="4.37892">
        <ele>990</ele>
        <time>2018-08-04T10:50:40Z</time>
      </trkpt>
      <trkpt lat="44.79053" lon="4.37897">
        <ele>990</ele>
        <time>2018-08-04T10:50:40Z</time>
      </trkpt>
      <trkpt lat="44.79067" lon="4.37904">
        <ele>986</ele>
        <time>2018-08-04T10:50:16Z</time>
      </trkpt>
      <trkpt lat="44.79078" lon="4.37909">
        <ele>983</ele>
        <time>2018-08-04T10:50:00Z</time>
      </trkpt>
      <trkpt lat="44.79089" lon="4.37912">
        <ele>983</ele>
        <time>2018-08-04T10:50:00Z</time>
      </trkpt>
      <trkpt lat="44.79095" lon="4.37915">
        <ele>983</ele>
        <time>2018-08-04T10:49:44Z</time>
      </trkpt>
      <trkpt lat="44.79108" lon="4.37919">
        <ele>979</ele>
        <time>2018-08-04T10:49:28Z</time>
      </trkpt>
      <trkpt lat="44.79119" lon="4.37923">
        <ele>979</ele>
        <time>2018-08-04T10:49:28Z</time>
      </trkpt>
      <trkpt lat="44.79126" lon="4.37926">
        <ele>973</ele>
        <time>2018-08-04T10:49:12Z</time>
      </trkpt>
      <trkpt lat="44.79134" lon="4.37932">
        <ele>972</ele>
        <time>2018-08-04T10:48:52Z</time>
      </trkpt>
      <trkpt lat="44.79145" lon="4.37938">
        <ele>972</ele>
        <time>2018-08-04T10:48:52Z</time>
      </trkpt>
      <trkpt lat="44.79151" lon="4.37939">
        <ele>972</ele>
        <time>2018-08-04T10:48:36Z</time>
      </trkpt>
      <trkpt lat="44.79158" lon="4.37946">
        <ele>964</ele>
        <time>2018-08-04T10:48:16Z</time>
      </trkpt>
      <trkpt lat="44.79172" lon="4.3795">
        <ele>964</ele>
        <time>2018-08-04T10:48:16Z</time>
      </trkpt>
      <trkpt lat="44.79181" lon="4.37958">
        <ele>956</ele>
        <time>2018-08-04T10:48:00Z</time>
      </trkpt>
      <trkpt lat="44.79188" lon="4.37969">
        <ele>956</ele>
        <time>2018-08-04T10:47:44Z</time>
      </trkpt>
      <trkpt lat="44.79199" lon="4.37982">
        <ele>956</ele>
        <time>2018-08-04T10:47:28Z</time>
      </trkpt>
      <trkpt lat="44.79208" lon="4.37996">
        <ele>955</ele>
        <time>2018-08-04T10:47:28Z</time>
      </trkpt>
      <trkpt lat="44.79215" lon="4.38009">
        <ele>950</ele>
        <time>2018-08-04T10:47:12Z</time>
      </trkpt>
      <trkpt lat="44.7922" lon="4.38013">
        <ele>950</ele>
        <time>2018-08-04T10:46:52Z</time>
      </trkpt>
      <trkpt lat="44.79224" lon="4.38017">
        <ele>949</ele>
        <time>2018-08-04T10:46:52Z</time>
      </trkpt>
      <trkpt lat="44.79237" lon="4.38029">
        <ele>943</ele>
        <time>2018-08-04T10:46:28Z</time>
      </trkpt>
      <trkpt lat="44.7924" lon="4.38033">
        <ele>943</ele>
        <time>2018-08-04T10:46:28Z</time>
      </trkpt>
      <trkpt lat="44.79248" lon="4.38048">
        <ele>942</ele>
        <time>2018-08-04T10:46:00Z</time>
      </trkpt>
      <trkpt lat="44.79248" lon="4.38054">
        <ele>942</ele>
        <time>2018-08-04T10:45:44Z</time>
      </trkpt>
      <trkpt lat="44.79253" lon="4.38056">
        <ele>942</ele>
        <time>2018-08-04T10:45:44Z</time>
      </trkpt>
      <trkpt lat="44.79243" lon="4.38075">
        <ele>943</ele>
        <time>2018-08-04T10:45:16Z</time>
      </trkpt>
      <trkpt lat="44.79236" lon="4.38087">
        <ele>949</ele>
        <time>2018-08-04T10:45:00Z</time>
      </trkpt>
      <trkpt lat="44.79235" lon="4.381">
        <ele>951</ele>
        <time>2018-08-04T10:44:44Z</time>
      </trkpt>
      <trkpt lat="44.79244" lon="4.38112">
        <ele>947</ele>
        <time>2018-08-04T10:44:44Z</time>
      </trkpt>
      <trkpt lat="44.79254" lon="4.38122">
        <ele>947</ele>
        <time>2018-08-04T10:44:28Z</time>
      </trkpt>
      <trkpt lat="44.79271" lon="4.38126">
        <ele>947</ele>
        <time>2018-08-04T10:44:12Z</time>
      </trkpt>
      <trkpt lat="44.79281" lon="4.38122">
        <ele>942</ele>
        <time>2018-08-04T10:43:56Z</time>
      </trkpt>
      <trkpt lat="44.79292" lon="4.38121">
        <ele>939</ele>
        <time>2018-08-04T10:43:56Z</time>
      </trkpt>
      <trkpt lat="44.79302" lon="4.38134">
        <ele>940</ele>
        <time>2018-08-04T10:43:40Z</time>
      </trkpt>
      <trkpt lat="44.79304" lon="4.38137">
        <ele>940</ele>
        <time>2018-08-04T10:43:24Z</time>
      </trkpt>
      <trkpt lat="44.7931" lon="4.38151">
        <ele>940</ele>
        <time>2018-08-04T10:43:08Z</time>
      </trkpt>
      <trkpt lat="44.79313" lon="4.38165">
        <ele>946</ele>
        <time>2018-08-04T10:43:08Z</time>
      </trkpt>
      <trkpt lat="44.79324" lon="4.38178">
        <ele>935</ele>
        <time>2018-08-04T10:42:52Z</time>
      </trkpt>
      <trkpt lat="44.79339" lon="4.38192">
        <ele>938</ele>
        <time>2018-08-04T10:42:36Z</time>
      </trkpt>
      <trkpt lat="44.79356" lon="4.38201">
        <ele>928</ele>
        <time>2018-08-04T10:42:20Z</time>
      </trkpt>
      <trkpt lat="44.79365" lon="4.38213">
        <ele>933</ele>
        <time>2018-08-04T10:42:20Z</time>
      </trkpt>
      <trkpt lat="44.79378" lon="4.38217">
        <ele>927</ele>
        <time>2018-08-04T10:42:00Z</time>
      </trkpt>
      <trkpt lat="44.79385" lon="4.3822">
        <ele>927</ele>
        <time>2018-08-04T10:41:44Z</time>
      </trkpt>
      <trkpt lat="44.79395" lon="4.38225">
        <ele>927</ele>
        <time>2018-08-04T10:41:44Z</time>
      </trkpt>
      <trkpt lat="44.7941" lon="4.38224">
        <ele>924</ele>
        <time>2018-08-04T10:41:28Z</time>
      </trkpt>
      <trkpt lat="44.79422" lon="4.38231">
        <ele>924</ele>
        <time>2018-08-04T10:41:12Z</time>
      </trkpt>
      <trkpt lat="44.79433" lon="4.38239">
        <ele>920</ele>
        <time>2018-08-04T10:40:56Z</time>
      </trkpt>
      <trkpt lat="44.79446" lon="4.38253">
        <ele>920</ele>
        <time>2018-08-04T10:40:56Z</time>
      </trkpt>
      <trkpt lat="44.79461" lon="4.38262">
        <ele>913</ele>
        <time>2018-08-04T10:40:40Z</time>
      </trkpt>
      <trkpt lat="44.7948" lon="4.3827">
        <ele>917</ele>
        <time>2018-08-04T10:40:24Z</time>
      </trkpt>
      <trkpt lat="44.79498" lon="4.38283">
        <ele>911</ele>
        <time>2018-08-04T10:40:08Z</time>
      </trkpt>
      <trkpt lat="44.79509" lon="4.38286">
        <ele>911</ele>
        <time>2018-08-04T10:40:08Z</time>
      </trkpt>
      <trkpt lat="44.79512" lon="4.38289">
        <ele>911</ele>
        <time>2018-08-04T10:39:48Z</time>
      </trkpt>
      <trkpt lat="44.79525" lon="4.38299">
        <ele>909</ele>
        <time>2018-08-04T10:39:32Z</time>
      </trkpt>
      <trkpt lat="44.79533" lon="4.38311">
        <ele>909</ele>
        <time>2018-08-04T10:39:32Z</time>
      </trkpt>
      <trkpt lat="44.79542" lon="4.38337">
        <ele>903</ele>
        <time>2018-08-04T10:39:16Z</time>
      </trkpt>
      <trkpt lat="44.79556" lon="4.38369">
        <ele>906</ele>
        <time>2018-08-04T10:39:00Z</time>
      </trkpt>
      <trkpt lat="44.79561" lon="4.38374">
        <ele>906</ele>
        <time>2018-08-04T10:39:00Z</time>
      </trkpt>
      <trkpt lat="44.79566" lon="4.38382">
        <ele>909</ele>
        <time>2018-08-04T10:38:44Z</time>
      </trkpt>
      <trkpt lat="44.79574" lon="4.38392">
        <ele>899</ele>
        <time>2018-08-04T10:38:20Z</time>
      </trkpt>
      <trkpt lat="44.79582" lon="4.38409">
        <ele>902</ele>
        <time>2018-08-04T10:38:20Z</time>
      </trkpt>
      <trkpt lat="44.79588" lon="4.38419">
        <ele>902</ele>
        <time>2018-08-04T10:37:52Z</time>
      </trkpt>
      <trkpt lat="44.79591" lon="4.3843">
        <ele>902</ele>
        <time>2018-08-04T10:37:08Z</time>
      </trkpt>
      <trkpt lat="44.79604" lon="4.38444">
        <ele>899</ele>
        <time>2018-08-04T10:36:52Z</time>
      </trkpt>
      <trkpt lat="44.79613" lon="4.38455">
        <ele>899</ele>
        <time>2018-08-04T10:36:36Z</time>
      </trkpt>
      <trkpt lat="44.79622" lon="4.38467">
        <ele>902</ele>
        <time>2018-08-04T10:36:36Z</time>
      </trkpt>
      <trkpt lat="44.79629" lon="4.38484">
        <ele>897</ele>
        <time>2018-08-04T10:36:20Z</time>
      </trkpt>
      <trkpt lat="44.79643" lon="4.38498">
        <ele>899</ele>
        <time>2018-08-04T10:36:04Z</time>
      </trkpt>
      <trkpt lat="44.79651" lon="4.3851">
        <ele>899</ele>
        <time>2018-08-04T10:35:48Z</time>
      </trkpt>
      <trkpt lat="44.79662" lon="4.38521">
        <ele>896</ele>
        <time>2018-08-04T10:35:48Z</time>
      </trkpt>
      <trkpt lat="44.79672" lon="4.38533">
        <ele>896</ele>
        <time>2018-08-04T10:35:32Z</time>
      </trkpt>
      <trkpt lat="44.79679" lon="4.38547">
        <ele>899</ele>
        <time>2018-08-04T10:35:16Z</time>
      </trkpt>
      <trkpt lat="44.79694" lon="4.38561">
        <ele>894</ele>
        <time>2018-08-04T10:35:00Z</time>
      </trkpt>
      <trkpt lat="44.79704" lon="4.38578">
        <ele>896</ele>
        <time>2018-08-04T10:35:00Z</time>
      </trkpt>
      <trkpt lat="44.7971" lon="4.38592">
        <ele>889</ele>
        <time>2018-08-04T10:34:44Z</time>
      </trkpt>
      <trkpt lat="44.79718" lon="4.38607">
        <ele>893</ele>
        <time>2018-08-04T10:34:28Z</time>
      </trkpt>
      <trkpt lat="44.7973" lon="4.38617">
        <ele>893</ele>
        <time>2018-08-04T10:34:12Z</time>
      </trkpt>
      <trkpt lat="44.79742" lon="4.38625">
        <ele>892</ele>
        <time>2018-08-04T10:34:12Z</time>
      </trkpt>
      <trkpt lat="44.79757" lon="4.38631">
        <ele>892</ele>
        <time>2018-08-04T10:33:56Z</time>
      </trkpt>
      <trkpt lat="44.7977" lon="4.38639">
        <ele>885</ele>
        <time>2018-08-04T10:33:40Z</time>
      </trkpt>
      <trkpt lat="44.7978" lon="4.38647">
        <ele>885</ele>
        <time>2018-08-04T10:33:24Z</time>
      </trkpt>
      <trkpt lat="44.79793" lon="4.38656">
        <ele>883</ele>
        <time>2018-08-04T10:33:24Z</time>
      </trkpt>
      <trkpt lat="44.79805" lon="4.38668">
        <ele>883</ele>
        <time>2018-08-04T10:33:08Z</time>
      </trkpt>
      <trkpt lat="44.79813" lon="4.38684">
        <ele>887</ele>
        <time>2018-08-04T10:32:52Z</time>
      </trkpt>
      <trkpt lat="44.79822" lon="4.38693">
        <ele>876</ele>
        <time>2018-08-04T10:32:36Z</time>
      </trkpt>
      <trkpt lat="44.79835" lon="4.38702">
        <ele>876</ele>
        <time>2018-08-04T10:32:36Z</time>
      </trkpt>
      <trkpt lat="44.79844" lon="4.38714">
        <ele>877</ele>
        <time>2018-08-04T10:32:20Z</time>
      </trkpt>
      <trkpt lat="44.79853" lon="4.38731">
        <ele>869</ele>
        <time>2018-08-04T10:32:04Z</time>
      </trkpt>
      <trkpt lat="44.79857" lon="4.38749">
        <ele>872</ele>
        <time>2018-08-04T10:31:48Z</time>
      </trkpt>
      <trkpt lat="44.79859" lon="4.38769">
        <ele>878</ele>
        <time>2018-08-04T10:31:48Z</time>
      </trkpt>
      <trkpt lat="44.79868" lon="4.38776">
        <ele>878</ele>
        <time>2018-08-04T10:31:32Z</time>
      </trkpt>
      <trkpt lat="44.79871" lon="4.38759">
        <ele>872</ele>
        <time>2018-08-04T10:31:16Z</time>
      </trkpt>
      <trkpt lat="44.7987" lon="4.38739">
        <ele>872</ele>
        <time>2018-08-04T10:31:00Z</time>
      </trkpt>
      <trkpt lat="44.79873" lon="4.38716">
        <ele>869</ele>
        <time>2018-08-04T10:31:00Z</time>
      </trkpt>
      <trkpt lat="44.79868" lon="4.38699">
        <ele>866</ele>
        <time>2018-08-04T10:30:44Z</time>
      </trkpt>
      <trkpt lat="44.79866" lon="4.38678">
        <ele>867</ele>
        <time>2018-08-04T10:30:28Z</time>
      </trkpt>
      <trkpt lat="44.79862" lon="4.38654">
        <ele>867</ele>
        <time>2018-08-04T10:30:12Z</time>
      </trkpt>
      <trkpt lat="44.79856" lon="4.38634">
        <ele>866</ele>
        <time>2018-08-04T10:30:12Z</time>
      </trkpt>
      <trkpt lat="44.79851" lon="4.38613">
        <ele>864</ele>
        <time>2018-08-04T10:29:56Z</time>
      </trkpt>
      <trkpt lat="44.79848" lon="4.38604">
        <ele>864</ele>
        <time>2018-08-04T10:29:00Z</time>
      </trkpt>
      <trkpt lat="44.79844" lon="4.38587">
        <ele>866</ele>
        <time>2018-08-04T10:29:00Z</time>
      </trkpt>
      <trkpt lat="44.79839" lon="4.38569">
        <ele>864</ele>
        <time>2018-08-04T10:28:44Z</time>
      </trkpt>
      <trkpt lat="44.79843" lon="4.38552">
        <ele>864</ele>
        <time>2018-08-04T10:28:00Z</time>
      </trkpt>
      <trkpt lat="44.79854" lon="4.38557">
        <ele>859</ele>
        <time>2018-08-04T10:28:00Z</time>
      </trkpt>
      <trkpt lat="44.79867" lon="4.38569">
        <ele>859</ele>
        <time>2018-08-04T10:27:44Z</time>
      </trkpt>
      <trkpt lat="44.79876" lon="4.38583">
        <ele>855</ele>
        <time>2018-08-04T10:27:28Z</time>
      </trkpt>
      <trkpt lat="44.79883" lon="4.3859">
        <ele>855</ele>
        <time>2018-08-04T10:27:12Z</time>
      </trkpt>
      <trkpt lat="44.79894" lon="4.38592">
        <ele>855</ele>
        <time>2018-08-04T10:27:12Z</time>
      </trkpt>
      <trkpt lat="44.79902" lon="4.38597">
        <ele>855</ele>
        <time>2018-08-04T10:26:56Z</time>
      </trkpt>
      <trkpt lat="44.7991" lon="4.38601">
        <ele>853</ele>
        <time>2018-08-04T10:26:40Z</time>
      </trkpt>
      <trkpt lat="44.79916" lon="4.38605">
        <ele>853</ele>
        <time>2018-08-04T10:26:40Z</time>
      </trkpt>
      <trkpt lat="44.79925" lon="4.38604">
        <ele>853</ele>
        <time>2018-08-04T10:26:16Z</time>
      </trkpt>
      <trkpt lat="44.79929" lon="4.38607">
        <ele>853</ele>
        <time>2018-08-04T10:26:16Z</time>
      </trkpt>
      <trkpt lat="44.79933" lon="4.38619">
        <ele>850</ele>
        <time>2018-08-04T10:25:44Z</time>
      </trkpt>
      <trkpt lat="44.79939" lon="4.38626">
        <ele>849</ele>
        <time>2018-08-04T10:25:08Z</time>
      </trkpt>
      <trkpt lat="44.7995" lon="4.38632">
        <ele>849</ele>
        <time>2018-08-04T10:25:08Z</time>
      </trkpt>
      <trkpt lat="44.79953" lon="4.38643">
        <ele>849</ele>
        <time>2018-08-04T10:24:52Z</time>
      </trkpt>
      <trkpt lat="44.79966" lon="4.38649">
        <ele>846</ele>
        <time>2018-08-04T10:24:36Z</time>
      </trkpt>
      <trkpt lat="44.79977" lon="4.3866">
        <ele>843</ele>
        <time>2018-08-04T10:24:20Z</time>
      </trkpt>
      <trkpt lat="44.79984" lon="4.38676">
        <ele>843</ele>
        <time>2018-08-04T10:24:20Z</time>
      </trkpt>
      <trkpt lat="44.79993" lon="4.38683">
        <ele>844</ele>
        <time>2018-08-04T10:24:04Z</time>
      </trkpt>
      <trkpt lat="44.79998" lon="4.38683">
        <ele>844</ele>
        <time>2018-08-04T10:23:44Z</time>
      </trkpt>
      <trkpt lat="44.80011" lon="4.38687">
        <ele>844</ele>
        <time>2018-08-04T10:23:44Z</time>
      </trkpt>
      <trkpt lat="44.80025" lon="4.38696">
        <ele>846</ele>
        <time>2018-08-04T10:23:28Z</time>
      </trkpt>
      <trkpt lat="44.80041" lon="4.38706">
        <ele>846</ele>
        <time>2018-08-04T10:23:12Z</time>
        <extensions>
          <visugpx:TrkExtension xmlns:visugpx="https://www.visugpx.com/editgpx/">
            <visugpx:node>1</visugpx:node>
            </visugpx:TrkExtension>
        </extensions>
      </trkpt>
      <trkpt lat="44.80042" lon="4.38711">
        <ele>839.5</ele>
      </trkpt>
      <trkpt lat="44.80051" lon="4.38718">
        <ele>838.7</ele>
      </trkpt>
      <trkpt lat="44.80057" lon="4.38724">
        <ele>837.9</ele>
      </trkpt>
      <trkpt lat="44.80062" lon="4.38724">
        <ele>838</ele>
      </trkpt>
      <trkpt lat="44.8007" lon="4.38724">
        <ele>838.3</ele>
      </trkpt>
      <trkpt lat="44.80074" lon="4.38725">
        <ele>838.3</ele>
      </trkpt>
      <trkpt lat="44.80078" lon="4.38727">
        <ele>838.2</ele>
      </trkpt>
      <trkpt lat="44.80091" lon="4.38748">
        <ele>837.2</ele>
      </trkpt>
      <trkpt lat="44.80102" lon="4.38771">
        <ele>834.4</ele>
      </trkpt>
      <trkpt lat="44.80112" lon="4.38798">
        <ele>829.3</ele>
      </trkpt>
      <trkpt lat="44.80124" lon="4.38824">
        <ele>827.3</ele>
      </trkpt>
      <trkpt lat="44.80138" lon="4.38851">
        <ele>823.9</ele>
      </trkpt>
      <trkpt lat="44.8015" lon="4.38871">
        <ele>823.3</ele>
      </trkpt>
      <trkpt lat="44.8016" lon="4.38882">
        <ele>823.3</ele>
      </trkpt>
      <trkpt lat="44.80176" lon="4.38899">
        <ele>822.6</ele>
      </trkpt>
      <trkpt lat="44.8019" lon="4.38915">
        <ele>821.8</ele>
      </trkpt>
      <trkpt lat="44.80201" lon="4.38929">
        <ele>820.3</ele>
      </trkpt>
      <trkpt lat="44.80219" lon="4.3895">
        <ele>817.9</ele>
      </trkpt>
      <trkpt lat="44.80233" lon="4.38953">
        <ele>818.2</ele>
      </trkpt>
      <trkpt lat="44.80275" lon="4.38973">
        <ele>815.9</ele>
      </trkpt>
      <trkpt lat="44.8031" lon="4.38988">
        <ele>812</ele>
      </trkpt>
      <trkpt lat="44.80312" lon="4.38988">
        <ele>811.7</ele>
        <extensions>
          <visugpx:TrkExtension xmlns:visugpx="https://www.visugpx.com/editgpx/">
            <visugpx:node>2</visugpx:node>
            </visugpx:TrkExtension>
        </extensions>
      </trkpt>
      <trkpt lat="44.80328" lon="4.38988">
        <ele>809.4</ele>
      </trkpt>
      <trkpt lat="44.80354" lon="4.38995">
        <ele>805.2</ele>
      </trkpt>
      <trkpt lat="44.80368" lon="4.38999">
        <ele>804.6</ele>
      </trkpt>
      <trkpt lat="44.80387" lon="4.39008">
        <ele>805</ele>
      </trkpt>
      <trkpt lat="44.804" lon="4.39017">
        <ele>803.3</ele>
      </trkpt>
      <trkpt lat="44.80411" lon="4.3902">
        <ele>803.8</ele>
      </trkpt>
      <trkpt lat="44.80419" lon="4.39021">
        <ele>804.2</ele>
      </trkpt>
      <trkpt lat="44.80432" lon="4.39026">
        <ele>802.6</ele>
      </trkpt>
      <trkpt lat="44.80457" lon="4.39036">
        <ele>801.3</ele>
      </trkpt>
      <trkpt lat="44.80475" lon="4.39048">
        <ele>798.9</ele>
      </trkpt>
      <trkpt lat="44.80498" lon="4.39065">
        <ele>793.7</ele>
      </trkpt>
      <trkpt lat="44.80514" lon="4.39078">
        <ele>790.1</ele>
      </trkpt>
      <trkpt lat="44.80526" lon="4.39094">
        <ele>787.3</ele>
      </trkpt>
      <trkpt lat="44.80537" lon="4.39109">
        <ele>789.8</ele>
      </trkpt>
      <trkpt lat="44.80551" lon="4.39125">
        <ele>790.3</ele>
      </trkpt>
      <trkpt lat="44.80554" lon="4.39128">
        <ele>789.5</ele>
      </trkpt>
      <trkpt lat="44.80561" lon="4.39133">
        <ele>788.4</ele>
      </trkpt>
      <trkpt lat="44.8057" lon="4.39138">
        <ele>787.4</ele>
      </trkpt>
      <trkpt lat="44.80578" lon="4.39148">
        <ele>786.2</ele>
      </trkpt>
      <trkpt lat="44.80591" lon="4.39154">
        <ele>785.3</ele>
      </trkpt>
      <trkpt lat="44.80606" lon="4.39154">
        <ele>784.4</ele>
      </trkpt>
      <trkpt lat="44.80618" lon="4.39152">
        <ele>785.9</ele>
      </trkpt>
      <trkpt lat="44.80631" lon="4.39152">
        <ele>788.1</ele>
      </trkpt>
      <trkpt lat="44.80647" lon="4.39151">
        <ele>787.7</ele>
      </trkpt>
      <trkpt lat="44.80658" lon="4.3915">
        <ele>785.2</ele>
      </trkpt>
      <trkpt lat="44.80672" lon="4.39143">
        <ele>783.8</ele>
      </trkpt>
      <trkpt lat="44.80683" lon="4.39137">
        <ele>781.2</ele>
      </trkpt>
      <trkpt lat="44.80698" lon="4.39134">
        <ele>776.6</ele>
      </trkpt>
      <trkpt lat="44.80714" lon="4.39127">
        <ele>775.3</ele>
      </trkpt>
      <trkpt lat="44.80755" lon="4.39124">
        <ele>771.9</ele>
      </trkpt>
      <trkpt lat="44.80762" lon="4.39126">
        <ele>771.9</ele>
      </trkpt>
      <trkpt lat="44.80776" lon="4.39126">
        <ele>773.4</ele>
      </trkpt>
      <trkpt lat="44.80785" lon="4.39129">
        <ele>772.3</ele>
      </trkpt>
      <trkpt lat="44.80794" lon="4.39129">
        <ele>772.4</ele>
      </trkpt>
      <trkpt lat="44.80804" lon="4.39131">
        <ele>771.8</ele>
      </trkpt>
      <trkpt lat="44.80814" lon="4.39134">
        <ele>771.3</ele>
      </trkpt>
      <trkpt lat="44.80833" lon="4.39149">
        <ele>768.2</ele>
      </trkpt>
      <trkpt lat="44.80843" lon="4.39159">
        <ele>767.5</ele>
      </trkpt>
      <trkpt lat="44.80855" lon="4.3918">
        <ele>762.6</ele>
      </trkpt>
      <trkpt lat="44.80861" lon="4.39185">
        <ele>762</ele>
      </trkpt>
      <trkpt lat="44.80871" lon="4.39192">
        <ele>761</ele>
      </trkpt>
      <trkpt lat="44.80881" lon="4.39199">
        <ele>759.9</ele>
      </trkpt>
      <trkpt lat="44.80892" lon="4.39206">
        <ele>758.9</ele>
        <extensions>
          <visugpx:TrkExtension xmlns:visugpx="https://www.visugpx.com/editgpx/">
            <visugpx:node>3</visugpx:node>
            </visugpx:TrkExtension>
        </extensions>
      </trkpt>
      <trkpt lat="44.80893" lon="4.39207">
        <ele>758.7</ele>
      </trkpt>
      <trkpt lat="44.80905" lon="4.3921">
        <ele>758.2</ele>
      </trkpt>
      <trkpt lat="44.80913" lon="4.39214">
        <ele>757.5</ele>
      </trkpt>
      <trkpt lat="44.80918" lon="4.39212">
        <ele>757.9</ele>
      </trkpt>
      <trkpt lat="44.80921" lon="4.39203">
        <ele>759.3</ele>
      </trkpt>
      <trkpt lat="44.80927" lon="4.392">
        <ele>759.6</ele>
      </trkpt>
      <trkpt lat="44.80936" lon="4.39201">
        <ele>759.1</ele>
      </trkpt>
      <trkpt lat="44.80942" lon="4.39201">
        <ele>758.9</ele>
      </trkpt>
      <trkpt lat="44.80947" lon="4.39201">
        <ele>759.7</ele>
      </trkpt>
      <trkpt lat="44.80951" lon="4.39204">
        <ele>760.9</ele>
      </trkpt>
      <trkpt lat="44.8096" lon="4.39216">
        <ele>761.9</ele>
      </trkpt>
      <trkpt lat="44.80972" lon="4.39226">
        <ele>762.1</ele>
      </trkpt>
      <trkpt lat="44.80983" lon="4.39236">
        <ele>764.7</ele>
      </trkpt>
      <trkpt lat="44.80995" lon="4.39243">
        <ele>767.5</ele>
      </trkpt>
      <trkpt lat="44.81005" lon="4.39256">
        <ele>768.1</ele>
      </trkpt>
      <trkpt lat="44.8102" lon="4.39269">
        <ele>770.3</ele>
      </trkpt>
      <trkpt lat="44.81036" lon="4.39284">
        <ele>768</ele>
      </trkpt>
      <trkpt lat="44.81051" lon="4.39299">
        <ele>763.6</ele>
      </trkpt>
      <trkpt lat="44.81062" lon="4.39309">
        <ele>761.3</ele>
      </trkpt>
      <trkpt lat="44.81071" lon="4.39317">
        <ele>760.1</ele>
      </trkpt>
      <trkpt lat="44.81079" lon="4.39321">
        <ele>759.9</ele>
      </trkpt>
      <trkpt lat="44.81087" lon="4.39323">
        <ele>759.7</ele>
      </trkpt>
      <trkpt lat="44.81104" lon="4.39325">
        <ele>758.2</ele>
      </trkpt>
      <trkpt lat="44.81131" lon="4.39329">
        <ele>756.6</ele>
      </trkpt>
      <trkpt lat="44.8115" lon="4.39332">
        <ele>754.7</ele>
      </trkpt>
      <trkpt lat="44.81163" lon="4.39332">
        <ele>753.7</ele>
      </trkpt>
      <trkpt lat="44.81176" lon="4.39328">
        <ele>753</ele>
      </trkpt>
      <trkpt lat="44.81185" lon="4.39323">
        <ele>752.2</ele>
      </trkpt>
      <trkpt lat="44.81192" lon="4.39316">
        <ele>751.6</ele>
      </trkpt>
      <trkpt lat="44.81197" lon="4.39305">
        <ele>751</ele>
      </trkpt>
      <trkpt lat="44.812" lon="4.39291">
        <ele>750.8</ele>
      </trkpt>
      <trkpt lat="44.81203" lon="4.39274">
        <ele>751</ele>
      </trkpt>
      <trkpt lat="44.81206" lon="4.39251">
        <ele>752.2</ele>
      </trkpt>
      <trkpt lat="44.81213" lon="4.39231">
        <ele>752.7</ele>
      </trkpt>
      <trkpt lat="44.81221" lon="4.39218">
        <ele>752.6</ele>
      </trkpt>
      <trkpt lat="44.81232" lon="4.39209">
        <ele>751.8</ele>
      </trkpt>
      <trkpt lat="44.81241" lon="4.39204">
        <ele>750.4</ele>
      </trkpt>
      <trkpt lat="44.81249" lon="4.39204">
        <ele>747.9</ele>
      </trkpt>
      <trkpt lat="44.81264" lon="4.39215">
        <ele>749.4</ele>
      </trkpt>
      <trkpt lat="44.81266" lon="4.39217">
        <ele>750</ele>
      </trkpt>
      <trkpt lat="44.81266" lon="4.39219">
        <ele>750</ele>
      </trkpt>
      <trkpt lat="44.81266" lon="4.39226">
        <ele>750.6</ele>
      </trkpt>
      <trkpt lat="44.81265" lon="4.3924">
        <ele>752.4</ele>
      </trkpt>
      <trkpt lat="44.81264" lon="4.39259">
        <ele>753.7</ele>
      </trkpt>
      <trkpt lat="44.81264" lon="4.39282">
        <ele>754.1</ele>
      </trkpt>
      <trkpt lat="44.81264" lon="4.39298">
        <ele>754.4</ele>
      </trkpt>
      <trkpt lat="44.8126" lon="4.39317">
        <ele>754.1</ele>
      </trkpt>
      <trkpt lat="44.81256" lon="4.39337">
        <ele>753.8</ele>
      </trkpt>
      <trkpt lat="44.81255" lon="4.39351">
        <ele>753.1</ele>
      </trkpt>
      <trkpt lat="44.81256" lon="4.39361">
        <ele>753.4</ele>
      </trkpt>
      <trkpt lat="44.81263" lon="4.39378">
        <ele>753.5</ele>
      </trkpt>
      <trkpt lat="44.81275" lon="4.39402">
        <ele>753.6</ele>
      </trkpt>
      <trkpt lat="44.81288" lon="4.39426">
        <ele>754.8</ele>
      </trkpt>
      <trkpt lat="44.813" lon="4.39446">
        <ele>755.7</ele>
      </trkpt>
      <trkpt lat="44.8131" lon="4.39467">
        <ele>755.7</ele>
      </trkpt>
      <trkpt lat="44.81317" lon="4.39488">
        <ele>756.6</ele>
      </trkpt>
      <trkpt lat="44.81322" lon="4.39507">
        <ele>757.7</ele>
      </trkpt>
      <trkpt lat="44.81324" lon="4.39519">
        <ele>758.1</ele>
      </trkpt>
      <trkpt lat="44.81327" lon="4.39541">
        <ele>758.3</ele>
      </trkpt>
      <trkpt lat="44.81328" lon="4.39561">
        <ele>758.1</ele>
      </trkpt>
      <trkpt lat="44.81326" lon="4.39583">
        <ele>756.8</ele>
      </trkpt>
      <trkpt lat="44.8132" lon="4.39614">
        <ele>755.2</ele>
      </trkpt>
      <trkpt lat="44.81315" lon="4.39641">
        <ele>755.8</ele>
      </trkpt>
      <trkpt lat="44.81315" lon="4.39645">
        <ele>756</ele>
        <extensions>
          <visugpx:TrkExtension xmlns:visugpx="https://www.visugpx.com/editgpx/">
            <visugpx:node>4</visugpx:node>
            </visugpx:TrkExtension>
        </extensions>
      </trkpt>
      <trkpt lat="44.81313" lon="4.3966">
        <ele>755.7</ele>
      </trkpt>
      <trkpt lat="44.81313" lon="4.39665">
        <ele>755.9</ele>
      </trkpt>
      <trkpt lat="44.81316" lon="4.39671">
        <ele>756.6</ele>
      </trkpt>
      <trkpt lat="44.81316" lon="4.3968">
        <ele>755.3</ele>
      </trkpt>
      <trkpt lat="44.81318" lon="4.39692">
        <ele>754.4</ele>
      </trkpt>
      <trkpt lat="44.81319" lon="4.39706">
        <ele>752.9</ele>
      </trkpt>
      <trkpt lat="44.81323" lon="4.3972">
        <ele>752.1</ele>
      </trkpt>
      <trkpt lat="44.81327" lon="4.39729">
        <ele>752.3</ele>
      </trkpt>
      <trkpt lat="44.81337" lon="4.39734">
        <ele>752.9</ele>
      </trkpt>
      <trkpt lat="44.81347" lon="4.39734">
        <ele>752.2</ele>
      </trkpt>
      <trkpt lat="44.81357" lon="4.39734">
        <ele>751.6</ele>
      </trkpt>
      <trkpt lat="44.8136" lon="4.39734">
        <ele>751.4</ele>
      </trkpt>
      <trkpt lat="44.8138" lon="4.39737">
        <ele>748.8</ele>
      </trkpt>
      <trkpt lat="44.8139" lon="4.3974">
        <ele>747.6</ele>
      </trkpt>
      <trkpt lat="44.81397" lon="4.39745">
        <ele>749.1</ele>
      </trkpt>
      <trkpt lat="44.814" lon="4.39748">
        <ele>749.7</ele>
      </trkpt>
      <trkpt lat="44.81403" lon="4.39756">
        <ele>749.9</ele>
      </trkpt>
      <trkpt lat="44.81408" lon="4.39778">
        <ele>749.2</ele>
      </trkpt>
      <trkpt lat="44.81413" lon="4.39802">
        <ele>748</ele>
      </trkpt>
      <trkpt lat="44.81416" lon="4.39818">
        <ele>745.2</ele>
      </trkpt>
      <trkpt lat="44.81421" lon="4.39827">
        <ele>744</ele>
      </trkpt>
      <trkpt lat="44.81434" lon="4.39844">
        <ele>744</ele>
      </trkpt>
      <trkpt lat="44.81455" lon="4.39868">
        <ele>743.2</ele>
      </trkpt>
      <trkpt lat="44.81469" lon="4.39886">
        <ele>741.4</ele>
      </trkpt>
      <trkpt lat="44.8148" lon="4.39901">
        <ele>739.5</ele>
      </trkpt>
      <trkpt lat="44.81492" lon="4.39912">
        <ele>738.4</ele>
      </trkpt>
      <trkpt lat="44.81501" lon="4.39918">
        <ele>737.7</ele>
      </trkpt>
      <trkpt lat="44.81504" lon="4.39925">
        <ele>736.5</ele>
      </trkpt>
      <trkpt lat="44.81507" lon="4.39932">
        <ele>735.9</ele>
      </trkpt>
      <trkpt lat="44.81503" lon="4.39936">
        <ele>734.1</ele>
      </trkpt>
      <trkpt lat="44.81495" lon="4.39945">
        <ele>730.4</ele>
      </trkpt>
      <trkpt lat="44.81488" lon="4.39952">
        <ele>729.4</ele>
      </trkpt>
      <trkpt lat="44.8148" lon="4.39956">
        <ele>727.9</ele>
      </trkpt>
      <trkpt lat="44.81471" lon="4.39966">
        <ele>725.6</ele>
      </trkpt>
      <trkpt lat="44.81465" lon="4.39975">
        <ele>724.4</ele>
      </trkpt>
      <trkpt lat="44.8146" lon="4.39982">
        <ele>723.6</ele>
      </trkpt>
      <trkpt lat="44.8145" lon="4.40001">
        <ele>721.5</ele>
      </trkpt>
      <trkpt lat="44.81446" lon="4.40008">
        <ele>720.3</ele>
      </trkpt>
      <trkpt lat="44.81451" lon="4.4002">
        <ele>719.4</ele>
      </trkpt>
      <trkpt lat="44.81464" lon="4.40031">
        <ele>719.1</ele>
      </trkpt>
      <trkpt lat="44.8148" lon="4.40054">
        <ele>718.3</ele>
      </trkpt>
      <trkpt lat="44.81489" lon="4.40066">
        <ele>718.1</ele>
      </trkpt>
      <trkpt lat="44.81489" lon="4.40068">
        <ele>717.9</ele>
      </trkpt>
      <trkpt lat="44.81489" lon="4.4007">
        <ele>717.6</ele>
      </trkpt>
      <trkpt lat="44.81481" lon="4.40077">
        <ele>716.5</ele>
      </trkpt>
      <trkpt lat="44.81481" lon="4.40079">
        <ele>716.4</ele>
      </trkpt>
      <trkpt lat="44.81481" lon="4.40081">
        <ele>716.2</ele>
      </trkpt>
      <trkpt lat="44.8149" lon="4.40107">
        <ele>713.9</ele>
      </trkpt>
      <trkpt lat="44.81487" lon="4.40111">
        <ele>713.1</ele>
      </trkpt>
      <trkpt lat="44.8149" lon="4.40127">
        <ele>713.1</ele>
      </trkpt>
      <trkpt lat="44.81488" lon="4.40127">
        <ele>712.8</ele>
      </trkpt>
      <trkpt lat="44.81485" lon="4.40128">
        <ele>712.2</ele>
      </trkpt>
      <trkpt lat="44.8148" lon="4.40133">
        <ele>711</ele>
        <extensions>
          <visugpx:TrkExtension xmlns:visugpx="https://www.visugpx.com/editgpx/">
            <visugpx:node>5</visugpx:node>
            </visugpx:TrkExtension>
        </extensions>
      </trkpt>
    </trkseg>
  </trk>
</gpx>